Wetterdaten: Montag, 08.06.2015
Datum Zeit Temp. Aussen +5cm Feuchte Auss BlattFeu 1 Luftdruck Regen Sonnenschein Regendauer Solar Windben
08.06.2015 00:00 13,5 C 11,7 C 69 % 0 lf 1029,2 hPa 0,0 l/m 0 min 0 min 0 W/m 16,7 km/h (3 Bft)
08.06.2015 00:02 13,4 C 11,7 C 70 % 0 lf 1029,3 hPa 0,0 l/m 0 min 0 min 0 W/m 20,9 km/h (4 Bft)
08.06.2015 00:06 13,3 C 11,7 C 70 % 0 lf 1029,4 hPa 0,0 l/m 0 min 0 min 0 W/m 18,8 km/h (3 Bft)
08.06.2015 00:08 13,3 C 11,7 C 70 % 0 lf 1029,4 hPa 0,0 l/m 0 min 0 min 0 W/m 14,6 km/h (3 Bft)
08.06.2015 00:10 13,2 C 11,7 C 70 % 0 lf 1029,4 hPa 0,0 l/m 0 min 0 min 0 W/m 18,8 km/h (3 Bft)
08.06.2015 00:12 13,2 C 11,7 C 70 % 0 lf 1029,4 hPa 0,0 l/m 0 min 0 min 0 W/m 14,6 km/h (3 Bft)
08.06.2015 00:14 13,1 C 11,7 C 70 % 0 lf 1029,4 hPa 0,0 l/m 0 min 0 min 0 W/m 14,6 km/h (3 Bft)
08.06.2015 00:16 13,1 C 11,7 C 70 % 0 lf 1029,4 hPa 0,0 l/m 0 min 0 min 0 W/m 16,7 km/h (3 Bft)
08.06.2015 00:18 13,1 C 11,7 C 70 % 0 lf 1029,4 hPa 0,0 l/m 0 min 0 min 0 W/m 18,8 km/h (3 Bft)
08.06.2015 00:20 13,0 C 11,7 C 70 % 0 lf 1029,4 hPa 0,0 l/m 0 min 0 min 0 W/m 14,6 km/h (3 Bft)
08.06.2015 00:22 12,9 C 11,7 C 70 % 0 lf 1029,5 hPa 0,0 l/m 0 min 0 min 0 W/m 20,9 km/h (4 Bft)
08.06.2015 00:24 12,9 C 11,7 C 70 % 0 lf 1029,5 hPa 0,0 l/m 0 min 0 min 0 W/m 20,9 km/h (4 Bft)
08.06.2015 00:26 12,8 C 11,1 C 71 % 0 lf 1029,4 hPa 0,0 l/m 0 min 0 min 0 W/m 20,9 km/h (4 Bft)
08.06.2015 00:28 12,8 C 11,1 C 71 % 0 lf 1029,4 hPa 0,0 l/m 0 min 0 min 0 W/m 18,8 km/h (3 Bft)
08.06.2015 00:30 12,8 C 11,1 C 71 % 0 lf 1029,4 hPa 0,0 l/m 0 min 0 min 0 W/m 20,9 km/h (4 Bft)
08.06.2015 00:32 12,7 C 11,1 C 71 % 0 lf 1029,5 hPa 0,0 l/m 0 min 0 min 0 W/m 16,7 km/h (3 Bft)
08.06.2015 00:34 12,7 C 11,1 C 71 % 0 lf 1029,6 hPa 0,0 l/m 0 min 0 min 0 W/m 16,7 km/h (3 Bft)
08.06.2015 00:36 12,7 C 11,1 C 71 % 0 lf 1029,5 hPa 0,0 l/m 0 min 0 min 0 W/m 16,7 km/h (3 Bft)
08.06.2015 00:38 12,6 C 11,1 C 71 % 0 lf 1029,5 hPa 0,0 l/m 0 min 0 min 0 W/m 16,7 km/h (3 Bft)
08.06.2015 00:40 12,6 C 11,1 C 72 % 0 lf 1029,5 hPa 0,0 l/m 0 min 0 min 0 W/m 20,9 km/h (4 Bft)
08.06.2015 00:42 12,5 C 11,1 C 72 % 0 lf 1029,5 hPa 0,0 l/m 0 min 0 min 0 W/m 16,7 km/h (3 Bft)
08.06.2015 00:44 12,5 C 11,1 C 72 % 0 lf 1029,6 hPa 0,0 l/m 0 min 0 min 0 W/m 18,8 km/h (3 Bft)
08.06.2015 00:46 12,4 C 11,1 C 72 % 0 lf 1029,6 hPa 0,0 l/m 0 min 0 min 0 W/m 12,6 km/h (3 Bft)
08.06.2015 00:48 12,4 C 11,1 C 72 % 0 lf 1029,6 hPa 0,0 l/m 0 min 0 min 0 W/m 14,6 km/h (3 Bft)
08.06.2015 00:50 12,4 C 11,1 C 73 % 0 lf 1029,6 hPa 0,0 l/m 0 min 0 min 0 W/m 14,6 km/h (3 Bft)
08.06.2015 00:52 12,4 C 11,1 C 73 % 0 lf 1029,6 hPa 0,0 l/m 0 min 0 min 0 W/m 16,7 km/h (3 Bft)
08.06.2015 00:54 12,3 C 10,6 C 73 % 0 lf 1029,6 hPa 0,0 l/m 0 min 0 min 0 W/m 16,7 km/h (3 Bft)
08.06.2015 00:56 12,3 C 10,6 C 73 % 0 lf 1029,6 hPa 0,0 l/m 0 min 0 min 0 W/m 16,7 km/h (3 Bft)
08.06.2015 00:58 12,3 C 10,6 C 73 % 0 lf 1029,7 hPa 0,0 l/m 0 min 0 min 0 W/m 10,5 km/h (2 Bft)
08.06.2015 01:00 12,2 C 10,6 C 73 % 0 lf 1029,7 hPa 0,0 l/m 0 min 0 min 0 W/m 10,5 km/h (2 Bft)
08.06.2015 01:02 12,2 C 10,6 C 73 % 0 lf 1029,7 hPa 0,0 l/m 0 min 0 min 0 W/m 10,5 km/h (2 Bft)
08.06.2015 01:04 12,2 C 10,6 C 73 % 0 lf 1029,6 hPa 0,0 l/m 0 min 0 min 0 W/m 10,5 km/h (2 Bft)
08.06.2015 01:06 12,1 C 10,6 C 74 % 0 lf 1029,6 hPa 0,0 l/m 0 min 0 min 0 W/m 14,6 km/h (3 Bft)
08.06.2015 01:08 12,1 C 10,6 C 74 % 0 lf 1029,7 hPa 0,0 l/m 0 min 0 min 0 W/m 14,6 km/h (3 Bft)
08.06.2015 01:10 12,1 C 10,6 C 74 % 0 lf 1029,7 hPa 0,0 l/m 0 min 0 min 0 W/m 16,7 km/h (3 Bft)
08.06.2015 01:12 12,0 C 10,6 C 74 % 0 lf 1029,6 hPa 0,0 l/m 0 min 0 min 0 W/m 14,6 km/h (3 Bft)
08.06.2015 01:14 12,0 C 10,6 C 74 % 0 lf 1029,6 hPa 0,0 l/m 0 min 0 min 0 W/m 16,7 km/h (3 Bft)
08.06.2015 01:16 11,9 C 10,6 C 74 % 0 lf 1029,6 hPa 0,0 l/m 0 min 0 min 0 W/m 16,7 km/h (3 Bft)
08.06.2015 01:18 11,9 C 10,6 C 75 % 0 lf 1029,7 hPa 0,0 l/m 0 min 0 min 0 W/m 16,7 km/h (3 Bft)
08.06.2015 01:20 11,9 C 10,6 C 75 % 0 lf 1029,7 hPa 0,0 l/m 0 min 0 min 0 W/m 16,7 km/h (3 Bft)
08.06.2015 01:22 11,8 C 10,6 C 75 % 0 lf 1029,7 hPa 0,0 l/m 0 min 0 min 0 W/m 18,8 km/h (3 Bft)
08.06.2015 01:24 11,8 C 10,6 C 75 % 0 lf 1029,6 hPa 0,0 l/m 0 min 0 min 0 W/m 18,8 km/h (3 Bft)
08.06.2015 01:26 11,7 C 10,6 C 75 % 0 lf 1029,6 hPa 0,0 l/m 0 min 0 min 0 W/m 12,6 km/h (3 Bft)
08.06.2015 01:28 11,7 C 10,6 C 75 % 0 lf 1029,6 hPa 0,0 l/m 0 min 0 min 0 W/m 18,8 km/h (3 Bft)
08.06.2015 01:30 11,7 C 10,6 C 75 % 0 lf 1029,7 hPa 0,0 l/m 0 min 0 min 0 W/m 16,7 km/h (3 Bft)
08.06.2015 01:32 11,7 C 10,0 C 75 % 0 lf 1029,7 hPa 0,0 l/m 0 min 0 min 0 W/m 16,7 km/h (3 Bft)
08.06.2015 01:34 11,6 C 10,0 C 76 % 0 lf 1029,7 hPa 0,0 l/m 0 min 0 min 0 W/m 16,7 km/h (3 Bft)
08.06.2015 01:36 11,6 C 10,0 C 76 % 0 lf 1029,8 hPa 0,0 l/m 0 min 0 min 0 W/m 14,6 km/h (3 Bft)
08.06.2015 01:38 11,6 C 10,0 C 76 % 0 lf 1029,7 hPa 0,0 l/m 0 min 0 min 0 W/m 10,5 km/h (2 Bft)
08.06.2015 01:40 11,6 C 10,0 C 76 % 0 lf 1029,7 hPa 0,0 l/m 0 min 0 min 0 W/m 14,6 km/h (3 Bft)
08.06.2015 01:42 11,6 C 10,0 C 76 % 0 lf 1029,8 hPa 0,0 l/m 0 min 0 min 0 W/m 10,5 km/h (2 Bft)
08.06.2015 01:44 11,5 C 10,0 C 76 % 0 lf 1029,8 hPa 0,0 l/m 0 min 0 min 0 W/m 14,6 km/h (3 Bft)
08.06.2015 01:46 11,4 C 10,0 C 76 % 0 lf 1029,8 hPa 0,0 l/m 0 min 0 min 0 W/m 12,6 km/h (3 Bft)
08.06.2015 01:48 11,4 C 10,0 C 76 % 0 lf 1029,8 hPa 0,0 l/m 0 min 0 min 0 W/m 14,6 km/h (3 Bft)
08.06.2015 01:50 11,4 C 10,0 C 76 % 0 lf 1029,7 hPa 0,0 l/m 0 min 0 min 0 W/m 16,7 km/h (3 Bft)
08.06.2015 01:52 11,4 C 10,0 C 76 % 0 lf 1029,8 hPa 0,0 l/m 0 min 0 min 0 W/m 12,6 km/h (3 Bft)
08.06.2015 01:54 11,3 C 10,0 C 76 % 0 lf 1029,8 hPa 0,0 l/m 0 min 0 min 0 W/m 10,5 km/h (2 Bft)
08.06.2015 01:56 11,3 C 10,0 C 77 % 0 lf 1029,8 hPa 0,0 l/m 0 min 0 min 0 W/m 14,6 km/h (3 Bft)
08.06.2015 01:58 11,3 C 10,0 C 77 % 0 lf 1029,8 hPa 0,0 l/m 0 min 0 min 0 W/m 10,5 km/h (2 Bft)
08.06.2015 02:00 11,3 C 10,0 C 77 % 0 lf 1029,8 hPa 0,0 l/m 0 min 0 min 0 W/m 12,6 km/h (3 Bft)
08.06.2015 02:02 11,2 C 10,0 C 77 % 0 lf 1029,8 hPa 0,0 l/m 0 min 0 min 0 W/m 12,6 km/h (3 Bft)
08.06.2015 02:04 11,2 C 10,0 C 77 % 0 lf 1029,7 hPa 0,0 l/m 0 min 0 min 0 W/m 14,6 km/h (3 Bft)
08.06.2015 02:06 11,2 C 10,0 C 77 % 0 lf 1029,8 hPa 0,0 l/m 0 min 0 min 0 W/m 12,6 km/h (3 Bft)
08.06.2015 02:08 11,2 C 10,0 C 77 % 0 lf 1029,8 hPa 0,0 l/m 0 min 0 min 0 W/m 12,6 km/h (3 Bft)
08.06.2015 02:10 11,1 C 9,4 C 77 % 0 lf 1029,7 hPa 0,0 l/m 0 min 0 min 0 W/m 12,6 km/h (3 Bft)
08.06.2015 02:12 11,1 C 9,4 C 77 % 0 lf 1029,7 hPa 0,0 l/m 0 min 0 min 0 W/m 12,6 km/h (3 Bft)
08.06.2015 02:14 11,1 C 9,4 C 78 % 0 lf 1029,7 hPa 0,0 l/m 0 min 0 min 0 W/m 16,7 km/h (3 Bft)
08.06.2015 02:16 11,1 C 9,4 C 78 % 0 lf 1029,8 hPa 0,0 l/m 0 min 0 min 0 W/m 12,6 km/h (3 Bft)
08.06.2015 02:18 11,0 C 9,4 C 78 % 0 lf 1029,8 hPa 0,0 l/m 0 min 0 min 0 W/m 12,6 km/h (3 Bft)
08.06.2015 02:20 11,0 C 9,4 C 78 % 0 lf 1029,8 hPa 0,0 l/m 0 min 0 min 0 W/m 10,5 km/h (2 Bft)
08.06.2015 02:22 10,9 C 9,4 C 78 % 0 lf 1029,7 hPa 0,0 l/m 0 min 0 min 0 W/m 12,6 km/h (3 Bft)
08.06.2015 02:24 10,9 C 9,4 C 78 % 0 lf 1029,8 hPa 0,0 l/m 0 min 0 min 0 W/m 12,6 km/h (3 Bft)
08.06.2015 02:26 10,9 C 9,4 C 78 % 0 lf 1029,7 hPa 0,0 l/m 0 min 0 min 0 W/m 12,6 km/h (3 Bft)
08.06.2015 02:28 10,8 C 9,4 C 78 % 0 lf 1029,8 hPa 0,0 l/m 0 min 0 min 0 W/m 14,6 km/h (3 Bft)
08.06.2015 02:30 10,8 C 9,4 C 79 % 0 lf 1029,8 hPa 0,0 l/m 0 min 0 min 0 W/m 10,5 km/h (2 Bft)
08.06.2015 02:32 10,8 C 9,4 C 79 % 0 lf 1029,7 hPa 0,0 l/m 0 min 0 min 0 W/m 16,7 km/h (3 Bft)
08.06.2015 02:34 10,7 C 9,4 C 79 % 0 lf 1029,8 hPa 0,0 l/m 0 min 0 min 0 W/m 12,6 km/h (3 Bft)
08.06.2015 02:36 10,7 C 9,4 C 79 % 0 lf 1029,8 hPa 0,0 l/m 0 min 0 min 0 W/m 14,6 km/h (3 Bft)
08.06.2015 02:38 10,7 C 9,4 C 79 % 0 lf 1029,8 hPa 0,0 l/m 0 min 0 min 0 W/m 10,5 km/h (2 Bft)
08.06.2015 02:40 10,7 C 9,4 C 79 % 0 lf 1029,8 hPa 0,0 l/m 0 min 0 min 0 W/m 12,6 km/h (3 Bft)
08.06.2015 02:42 10,6 C 9,4 C 79 % 0 lf 1029,8 hPa 0,0 l/m 0 min 0 min 0 W/m 14,6 km/h (3 Bft)
08.06.2015 02:44 10,6 C 9,4 C 79 % 0 lf 1029,7 hPa 0,0 l/m 0 min 0 min 0 W/m 12,6 km/h (3 Bft)
08.06.2015 02:46 10,6 C 9,4 C 79 % 0 lf 1029,7 hPa 0,0 l/m 0 min 0 min 0 W/m 14,6 km/h (3 Bft)
08.06.2015 02:48 10,6 C 9,4 C 80 % 0 lf 1029,6 hPa 0,0 l/m 0 min 0 min 0 W/m 10,5 km/h (2 Bft)
08.06.2015 02:50 10,5 C 8,9 C 80 % 0 lf 1029,6 hPa 0,0 l/m 0 min 0 min 0 W/m 8,4 km/h (2 Bft)
08.06.2015 02:52 10,4 C 8,9 C 80 % 0 lf 1029,6 hPa 0,0 l/m 0 min 0 min 0 W/m 14,6 km/h (3 Bft)
08.06.2015 02:54 10,4 C 8,9 C 80 % 0 lf 1029,6 hPa 0,0 l/m 0 min 0 min 0 W/m 10,5 km/h (2 Bft)
08.06.2015 02:56 10,4 C 8,9 C 80 % 0 lf 1029,7 hPa 0,0 l/m 0 min 0 min 0 W/m 12,6 km/h (3 Bft)
08.06.2015 02:58 10,4 C 8,9 C 80 % 0 lf 1029,6 hPa 0,0 l/m 0 min 0 min 0 W/m 12,6 km/h (3 Bft)
08.06.2015 03:00 10,4 C 8,9 C 80 % 0 lf 1029,7 hPa 0,0 l/m 0 min 0 min 0 W/m 12,6 km/h (3 Bft)
08.06.2015 03:02 10,3 C 8,9 C 81 % 0 lf 1029,7 hPa 0,0 l/m 0 min 0 min 0 W/m 14,6 km/h (3 Bft)
08.06.2015 03:04 10,3 C 8,9 C 81 % 0 lf 1029,7 hPa 0,0 l/m 0 min 0 min 0 W/m 12,6 km/h (3 Bft)
08.06.2015 03:06 10,3 C 8,9 C 81 % 0 lf 1029,6 hPa 0,0 l/m 0 min 0 min 0 W/m 12,6 km/h (3 Bft)
08.06.2015 03:08 10,3 C 8,9 C 81 % 0 lf 1029,6 hPa 0,0 l/m 0 min 0 min 0 W/m 12,6 km/h (3 Bft)
08.06.2015 03:10 10,2 C 8,9 C 81 % 0 lf 1029,6 hPa 0,0 l/m 0 min 0 min 0 W/m 16,7 km/h (3 Bft)
08.06.2015 03:12 10,2 C 8,9 C 81 % 0 lf 1029,6 hPa 0,0 l/m 0 min 0 min 0 W/m 16,7 km/h (3 Bft)
08.06.2015 03:14 10,2 C 8,9 C 81 % 0 lf 1029,5 hPa 0,0 l/m 0 min 0 min 0 W/m 16,7 km/h (3 Bft)
08.06.2015 03:16 10,2 C 8,9 C 81 % 0 lf 1029,5 hPa 0,0 l/m 0 min 0 min 0 W/m 12,6 km/h (3 Bft)
08.06.2015 03:18 10,2 C 8,9 C 81 % 0 lf 1029,5 hPa 0,0 l/m 0 min 0 min 0 W/m 10,5 km/h (2 Bft)
08.06.2015 03:20 10,1 C 8,9 C 81 % 0 lf 1029,5 hPa 0,0 l/m 0 min 0 min 0 W/m 16,7 km/h (3 Bft)
08.06.2015 03:22 10,1 C 8,9 C 81 % 0 lf 1029,5 hPa 0,0 l/m 0 min 0 min 0 W/m 14,6 km/h (3 Bft)
08.06.2015 03:24 10,1 C 8,9 C 81 % 0 lf 1029,5 hPa 0,0 l/m 0 min 0 min 0 W/m 12,6 km/h (3 Bft)
08.06.2015 03:26 10,1 C 8,9 C 82 % 0 lf 1029,5 hPa 0,0 l/m 0 min 0 min 0 W/m 10,5 km/h (2 Bft)
08.06.2015 03:28 10,1 C 8,9 C 82 % 0 lf 1029,5 hPa 0,0 l/m 0 min 0 min 0 W/m 12,6 km/h (3 Bft)
08.06.2015 03:30 10,0 C 8,9 C 82 % 0 lf 1029,5 hPa 0,0 l/m 0 min 0 min 0 W/m 14,6 km/h (3 Bft)
08.06.2015 03:32 10,0 C 8,9 C 82 % 0 lf 1029,6 hPa 0,0 l/m 0 min 0 min 0 W/m 12,6 km/h (3 Bft)
08.06.2015 03:34 10,0 C 8,9 C 82 % 0 lf 1029,6 hPa 0,0 l/m 0 min 0 min 0 W/m 10,5 km/h (2 Bft)
08.06.2015 03:36 9,9 C 8,9 C 82 % 0 lf 1029,5 hPa 0,0 l/m 0 min 0 min 0 W/m 10,5 km/h (2 Bft)
08.06.2015 03:38 9,9 C 8,9 C 82 % 0 lf 1029,5 hPa 0,0 l/m 0 min 0 min 0 W/m 10,5 km/h (2 Bft)
08.06.2015 03:40 9,9 C 8,9 C 82 % 0 lf 1029,6 hPa 0,0 l/m 0 min 0 min 0 W/m 12,6 km/h (3 Bft)
08.06.2015 03:42 9,9 C 8,9 C 82 % 0 lf 1029,5 hPa 0,0 l/m 0 min 0 min 0 W/m 10,5 km/h (2 Bft)
08.06.2015 03:44 9,9 C 8,9 C 82 % 0 lf 1029,5 hPa 0,0 l/m 0 min 0 min 0 W/m 12,6 km/h (3 Bft)
08.06.2015 03:46 9,9 C 8,9 C 82 % 0 lf 1029,4 hPa 0,0 l/m 0 min 0 min 0 W/m 6,3 km/h (2 Bft)
08.06.2015 03:48 9,8 C 8,3 C 82 % 0 lf 1029,5 hPa 0,0 l/m 0 min 0 min 0 W/m 10,5 km/h (2 Bft)
08.06.2015 03:50 9,8 C 8,3 C 82 % 0 lf 1029,5 hPa 0,0 l/m 0 min 0 min 0 W/m 8,4 km/h (2 Bft)
08.06.2015 03:52 9,8 C 8,3 C 82 % 0 lf 1029,6 hPa 0,0 l/m 0 min 0 min 0 W/m 10,5 km/h (2 Bft)
08.06.2015 03:54 9,8 C 8,3 C 83 % 0 lf 1029,4 hPa 0,0 l/m 0 min 0 min 0 W/m 8,4 km/h (2 Bft)
08.06.2015 03:56 9,8 C 8,3 C 83 % 0 lf 1029,4 hPa 0,0 l/m 0 min 0 min 0 W/m 10,5 km/h (2 Bft)
08.06.2015 03:58 9,7 C 8,3 C 83 % 0 lf 1029,4 hPa 0,0 l/m 0 min 0 min 0 W/m 8,4 km/h (2 Bft)
08.06.2015 04:00 9,7 C 8,3 C 83 % 0 lf 1029,4 hPa 0,0 l/m 0 min 0 min 0 W/m 10,5 km/h (2 Bft)
08.06.2015 04:05 9,7 C 8,3 C 83 % 0 lf 1029,4 hPa 0,0 l/m 0 min 0 min 0 W/m 10,5 km/h (2 Bft)
08.06.2015 04:06 9,7 C 8,3 C 83 % 0 lf 1029,4 hPa 0,0 l/m 0 min 0 min 0 W/m 10,5 km/h (2 Bft)
08.06.2015 04:08 9,7 C 8,3 C 83 % 0 lf 1029,4 hPa 0,0 l/m 0 min 0 min 0 W/m 12,6 km/h (3 Bft)
08.06.2015 04:10 9,6 C 8,3 C 83 % 0 lf 1029,5 hPa 0,0 l/m 0 min 0 min 0 W/m 14,6 km/h (3 Bft)
08.06.2015 04:12 9,6 C 8,3 C 83 % 0 lf 1029,5 hPa 0,0 l/m 0 min 0 min 0 W/m 12,6 km/h (3 Bft)
08.06.2015 04:14 9,6 C 8,3 C 83 % 0 lf 1029,4 hPa 0,0 l/m 0 min 0 min 0 W/m 10,5 km/h (2 Bft)
08.06.2015 04:16 9,6 C 8,3 C 84 % 0 lf 1029,4 hPa 0,0 l/m 0 min 0 min 0 W/m 12,6 km/h (3 Bft)
08.06.2015 04:18 9,5 C 8,3 C 84 % 0 lf 1029,5 hPa 0,0 l/m 0 min 0 min 0 W/m 10,5 km/h (2 Bft)
08.06.2015 04:20 9,5 C 8,3 C 84 % 0 lf 1029,4 hPa 0,0 l/m 0 min 0 min 0 W/m 8,4 km/h (2 Bft)
08.06.2015 04:22 9,5 C 8,3 C 84 % 0 lf 1029,3 hPa 0,0 l/m 0 min 0 min 0 W/m 8,4 km/h (2 Bft)
08.06.2015 04:24 9,4 C 8,3 C 84 % 0 lf 1029,3 hPa 0,0 l/m 0 min 0 min 0 W/m 10,5 km/h (2 Bft)
08.06.2015 04:26 9,4 C 8,3 C 84 % 0 lf 1029,4 hPa 0,0 l/m 0 min 0 min 0 W/m 14,6 km/h (3 Bft)
08.06.2015 04:28 9,4 C 8,3 C 84 % 0 lf 1029,4 hPa 0,0 l/m 0 min 0 min 0 W/m 10,5 km/h (2 Bft)
08.06.2015 04:30 9,4 C 8,3 C 84 % 0 lf 1029,3 hPa 0,0 l/m 0 min 0 min 0 W/m 10,5 km/h (2 Bft)
08.06.2015 04:32 9,4 C 8,3 C 84 % 0 lf 1029,4 hPa 0,0 l/m 0 min 0 min 0 W/m 10,5 km/h (2 Bft)
08.06.2015 04:34 9,4 C 8,3 C 84 % 0 lf 1029,3 hPa 0,0 l/m 0 min 0 min 0 W/m 12,6 km/h (3 Bft)
08.06.2015 04:36 9,4 C 8,3 C 84 % 0 lf 1029,3 hPa 0,0 l/m 0 min 0 min 0 W/m 12,6 km/h (3 Bft)
08.06.2015 04:38 9,3 C 8,3 C 84 % 0 lf 1029,4 hPa 0,0 l/m 0 min 0 min 0 W/m 12,6 km/h (3 Bft)
08.06.2015 04:40 9,3 C 8,3 C 85 % 0 lf 1029,3 hPa 0,0 l/m 0 min 0 min 0 W/m 10,5 km/h (2 Bft)
08.06.2015 04:42 9,3 C 8,3 C 85 % 0 lf 1029,3 hPa 0,0 l/m 0 min 0 min 0 W/m 12,6 km/h (3 Bft)
08.06.2015 04:44 9,3 C 8,3 C 85 % 0 lf 1029,3 hPa 0,0 l/m 0 min 0 min 0 W/m 10,5 km/h (2 Bft)
08.06.2015 04:46 9,3 C 7,8 C 85 % 0 lf 1029,3 hPa 0,0 l/m 0 min 0 min 0 W/m 12,6 km/h (3 Bft)
08.06.2015 04:48 9,3 C 7,8 C 85 % 0 lf 1029,3 hPa 0,0 l/m 0 min 0 min 0 W/m 10,5 km/h (2 Bft)
08.06.2015 04:50 9,3 C 7,8 C 85 % 0 lf 1029,3 hPa 0,0 l/m 0 min 0 min 0 W/m 10,5 km/h (2 Bft)
08.06.2015 04:52 9,2 C 7,8 C 85 % 0 lf 1029,4 hPa 0,0 l/m 0 min 0 min 0 W/m 8,4 km/h (2 Bft)
08.06.2015 04:54 9,2 C 7,8 C 85 % 0 lf 1029,3 hPa 0,0 l/m 0 min 0 min 0 W/m 8,4 km/h (2 Bft)
08.06.2015 04:56 9,2 C 7,8 C 85 % 0 lf 1029,3 hPa 0,0 l/m 0 min 0 min 0 W/m 10,5 km/h (2 Bft)
08.06.2015 04:58 9,2 C 7,8 C 85 % 0 lf 1029,3 hPa 0,0 l/m 0 min 0 min 0 W/m 10,5 km/h (2 Bft)
08.06.2015 05:00 9,2 C 7,8 C 85 % 0 lf 1029,3 hPa 0,0 l/m 0 min 0 min 0 W/m 8,4 km/h (2 Bft)
08.06.2015 05:02 9,2 C 7,8 C 85 % 0 lf 1029,3 hPa 0,0 l/m 0 min 0 min 0 W/m 8,4 km/h (2 Bft)
08.06.2015 05:04 9,2 C 7,8 C 85 % 0 lf 1029,3 hPa 0,0 l/m 0 min 0 min 0 W/m 6,3 km/h (2 Bft)
08.06.2015 05:06 9,1 C 7,8 C 85 % 0 lf 1029,3 hPa 0,0 l/m 0 min 0 min 0 W/m 10,5 km/h (2 Bft)
08.06.2015 05:08 9,1 C 7,8 C 85 % 0 lf 1029,3 hPa 0,0 l/m 0 min 0 min 0 W/m 6,3 km/h (2 Bft)
08.06.2015 05:10 9,1 C 7,8 C 85 % 0 lf 1029,4 hPa 0,0 l/m 0 min 0 min 0 W/m 8,4 km/h (2 Bft)
08.06.2015 05:12 9,1 C 7,8 C 85 % 0 lf 1029,4 hPa 0,0 l/m 0 min 0 min 1 W/m 10,5 km/h (2 Bft)
08.06.2015 05:14 9,1 C 7,8 C 85 % 0 lf 1029,4 hPa 0,0 l/m 0 min 0 min 5 W/m 8,4 km/h (2 Bft)
08.06.2015 05:16 9,1 C 7,8 C 85 % 0 lf 1029,3 hPa 0,0 l/m 0 min 0 min 5 W/m 12,6 km/h (3 Bft)
08.06.2015 05:18 9,0 C 7,8 C 85 % 0 lf 1029,3 hPa 0,0 l/m 0 min 0 min 5 W/m 10,5 km/h (2 Bft)
08.06.2015 05:20 9,0 C 7,8 C 85 % 0 lf 1029,3 hPa 0,0 l/m 0 min 0 min 7 W/m 8,4 km/h (2 Bft)
08.06.2015 05:22 9,0 C 7,8 C 85 % 0 lf 1029,3 hPa 0,0 l/m 0 min 0 min 7 W/m 8,4 km/h (2 Bft)
08.06.2015 05:24 8,9 C 7,8 C 85 % 0 lf 1029,4 hPa 0,0 l/m 0 min 0 min 7 W/m 8,4 km/h (2 Bft)
08.06.2015 05:26 8,9 C 7,8 C 86 % 0 lf 1029,4 hPa 0,0 l/m 0 min 0 min 9 W/m 8,4 km/h (2 Bft)
08.06.2015 05:28 8,9 C 7,8 C 85 % 0 lf 1029,3 hPa 0,0 l/m 0 min 0 min 9 W/m 12,6 km/h (3 Bft)
08.06.2015 05:30 8,9 C 7,8 C 85 % 0 lf 1029,4 hPa 0,0 l/m 0 min 0 min 10 W/m 10,5 km/h (2 Bft)
08.06.2015 05:32 8,9 C 7,8 C 86 % 0 lf 1029,3 hPa 0,0 l/m 0 min 0 min 11 W/m 16,7 km/h (3 Bft)
08.06.2015 05:34 8,9 C 7,8 C 86 % 0 lf 1029,4 hPa 0,0 l/m 0 min 0 min 12 W/m 14,6 km/h (3 Bft)
08.06.2015 05:36 8,9 C 7,8 C 86 % 0 lf 1029,3 hPa 0,0 l/m 0 min 0 min 12 W/m 8,4 km/h (2 Bft)
08.06.2015 05:38 8,8 C 7,8 C 86 % 0 lf 1029,3 hPa 0,0 l/m 0 min 0 min 14 W/m 6,3 km/h (2 Bft)
08.06.2015 05:40 8,8 C 7,8 C 86 % 0 lf 1029,3 hPa 0,0 l/m 0 min 0 min 15 W/m 10,5 km/h (2 Bft)
08.06.2015 05:42 8,8 C 7,8 C 86 % 0 lf 1029,4 hPa 0,0 l/m 0 min 0 min 17 W/m 10,5 km/h (2 Bft)
08.06.2015 05:44 8,8 C 7,8 C 86 % 0 lf 1029,4 hPa 0,0 l/m 2 min 0 min 19 W/m 12,6 km/h (3 Bft)
08.06.2015 05:46 8,8 C 7,8 C 86 % 0 lf 1029,4 hPa 0,0 l/m 0 min 0 min 20 W/m 10,5 km/h (2 Bft)
08.06.2015 05:48 8,8 C 7,8 C 86 % 0 lf 1029,4 hPa 0,0 l/m 0 min 0 min 22 W/m 14,6 km/h (3 Bft)
08.06.2015 05:50 8,8 C 7,8 C 86 % 0 lf 1029,4 hPa 0,0 l/m 2 min 0 min 25 W/m 12,6 km/h (3 Bft)
08.06.2015 05:52 8,7 C 7,8 C 86 % 0 lf 1029,4 hPa 0,0 l/m 0 min 0 min 27 W/m 10,5 km/h (2 Bft)
08.06.2015 05:54 8,7 C 7,8 C 86 % 0 lf 1029,4 hPa 0,0 l/m 2 min 0 min 30 W/m 12,6 km/h (3 Bft)
08.06.2015 05:56 8,7 C 7,8 C 87 % 0 lf 1029,4 hPa 0,0 l/m 2 min 0 min 32 W/m 16,7 km/h (3 Bft)
08.06.2015 05:58 8,7 C 7,8 C 87 % 0 lf 1029,4 hPa 0,0 l/m 2 min 0 min 34 W/m 14,6 km/h (3 Bft)
08.06.2015 06:00 8,7 C 7,8 C 87 % 0 lf 1029,4 hPa 0,0 l/m 2 min 0 min 38 W/m 10,5 km/h (2 Bft)
08.06.2015 06:02 8,7 C 7,8 C 87 % 0 lf 1029,4 hPa 0,0 l/m 2 min 0 min 41 W/m 14,6 km/h (3 Bft)
08.06.2015 06:06 8,7 C 7,8 C 87 % 0 lf 1029,4 hPa 0,0 l/m 2 min 0 min 46 W/m 14,6 km/h (3 Bft)
08.06.2015 06:08 8,7 C 7,8 C 87 % 0 lf 1029,4 hPa 0,0 l/m 2 min 0 min 52 W/m 14,6 km/h (3 Bft)
08.06.2015 06:10 8,7 C 7,8 C 87 % 0 lf 1029,4 hPa 0,0 l/m 2 min 0 min 55 W/m 10,5 km/h (2 Bft)
08.06.2015 06:12 8,7 C 7,8 C 87 % 0 lf 1029,4 hPa 0,0 l/m 2 min 0 min 59 W/m 14,6 km/h (3 Bft)
08.06.2015 06:14 8,7 C 7,8 C 87 % 0 lf 1029,4 hPa 0,0 l/m 2 min 0 min 62 W/m 14,6 km/h (3 Bft)
08.06.2015 06:16 8,7 C 7,8 C 87 % 0 lf 1029,4 hPa 0,0 l/m 2 min 0 min 66 W/m 12,6 km/h (3 Bft)
08.06.2015 06:18 8,7 C 7,8 C 87 % 0 lf 1029,4 hPa 0,0 l/m 2 min 0 min 70 W/m 12,6 km/h (3 Bft)
08.06.2015 06:20 8,7 C 7,8 C 87 % 0 lf 1029,4 hPa 0,0 l/m 2 min 0 min 75 W/m 12,6 km/h (3 Bft)
08.06.2015 06:22 8,7 C 7,8 C 87 % 0 lf 1029,4 hPa 0,0 l/m 2 min 0 min 80 W/m 8,4 km/h (2 Bft)
08.06.2015 06:24 8,8 C 7,8 C 87 % 0 lf 1029,4 hPa 0,0 l/m 2 min 0 min 84 W/m 10,5 km/h (2 Bft)
08.06.2015 06:26 8,7 C 7,8 C 87 % 0 lf 1029,5 hPa 0,0 l/m 2 min 0 min 89 W/m 8,4 km/h (2 Bft)
08.06.2015 06:28 8,8 C 7,8 C 87 % 0 lf 1029,5 hPa 0,0 l/m 2 min 0 min 95 W/m 14,6 km/h (3 Bft)
08.06.2015 06:30 8,8 C 8,3 C 87 % 0 lf 1029,5 hPa 0,0 l/m 2 min 0 min 98 W/m 14,6 km/h (3 Bft)
08.06.2015 06:32 8,8 C 8,3 C 88 % 0 lf 1029,4 hPa 0,0 l/m 2 min 0 min 104 W/m 12,6 km/h (3 Bft)
08.06.2015 06:34 8,9 C 8,3 C 88 % 0 lf 1029,4 hPa 0,0 l/m 2 min 0 min 109 W/m 16,7 km/h (3 Bft)
08.06.2015 06:36 8,9 C 8,3 C 88 % 0 lf 1029,4 hPa 0,0 l/m 2 min 0 min 115 W/m 12,6 km/h (3 Bft)
08.06.2015 06:38 8,9 C 8,3 C 88 % 0 lf 1029,4 hPa 0,0 l/m 2 min 0 min 120 W/m 14,6 km/h (3 Bft)
08.06.2015 06:40 8,9 C 8,3 C 88 % 0 lf 1029,4 hPa 0,0 l/m 2 min 0 min 126 W/m 16,7 km/h (3 Bft)
08.06.2015 06:42 9,0 C 8,3 C 88 % 0 lf 1029,4 hPa 0,0 l/m 2 min 0 min 131 W/m 14,6 km/h (3 Bft)
08.06.2015 06:44 9,0 C 8,3 C 88 % 0 lf 1029,4 hPa 0,0 l/m 2 min 0 min 136 W/m 14,6 km/h (3 Bft)
08.06.2015 06:46 9,0 C 8,3 C 88 % 0 lf 1029,4 hPa 0,0 l/m 2 min 0 min 141 W/m 14,6 km/h (3 Bft)
08.06.2015 06:48 9,1 C 8,3 C 88 % 0 lf 1029,4 hPa 0,0 l/m 2 min 0 min 147 W/m 14,6 km/h (3 Bft)
08.06.2015 06:50 9,1 C 8,3 C 88 % 0 lf 1029,4 hPa 0,0 l/m 2 min 0 min 152 W/m 18,8 km/h (3 Bft)
08.06.2015 06:52 9,1 C 8,3 C 88 % 0 lf 1029,5 hPa 0,0 l/m 2 min 0 min 158 W/m 18,8 km/h (3 Bft)
08.06.2015 06:54 9,2 C 8,3 C 87 % 0 lf 1029,5 hPa 0,0 l/m 2 min 0 min 163 W/m 16,7 km/h (3 Bft)
08.06.2015 06:56 9,2 C 8,9 C 87 % 0 lf 1029,5 hPa 0,0 l/m 2 min 0 min 170 W/m 16,7 km/h (3 Bft)
08.06.2015 06:58 9,3 C 8,9 C 87 % 0 lf 1029,5 hPa 0,0 l/m 2 min 0 min 174 W/m 23,0 km/h (4 Bft)
08.06.2015 07:00 9,3 C 8,9 C 87 % 0 lf 1029,5 hPa 0,0 l/m 2 min 0 min 179 W/m 20,9 km/h (4 Bft)
08.06.2015 07:02 9,4 C 8,9 C 87 % 0 lf 1029,5 hPa 0,0 l/m 2 min 0 min 185 W/m 20,9 km/h (4 Bft)
08.06.2015 07:04 9,4 C 8,9 C 87 % 0 lf 1029,5 hPa 0,0 l/m 2 min 0 min 191 W/m 18,8 km/h (3 Bft)
08.06.2015 07:06 9,4 C 8,9 C 87 % 0 lf 1029,5 hPa 0,0 l/m 2 min 0 min 197 W/m 12,6 km/h (3 Bft)
08.06.2015 07:08 9,5 C 8,9 C 87 % 0 lf 1029,5 hPa 0,0 l/m 2 min 0 min 202 W/m 20,9 km/h (4 Bft)
08.06.2015 07:10 9,6 C 8,9 C 87 % 0 lf 1029,5 hPa 0,0 l/m 2 min 0 min 207 W/m 23,0 km/h (4 Bft)
08.06.2015 07:12 9,6 C 8,9 C 87 % 0 lf 1029,6 hPa 0,0 l/m 2 min 0 min 211 W/m 23,0 km/h (4 Bft)
08.06.2015 07:14 9,7 C 8,9 C 87 % 0 lf 1029,6 hPa 0,0 l/m 2 min 0 min 216 W/m 18,8 km/h (3 Bft)
08.06.2015 07:16 9,7 C 8,9 C 87 % 0 lf 1029,7 hPa 0,0 l/m 2 min 0 min 224 W/m 18,8 km/h (3 Bft)
08.06.2015 07:18 9,7 C 8,9 C 86 % 0 lf 1029,7 hPa 0,0 l/m 2 min 0 min 228 W/m 25,1 km/h (4 Bft)
08.06.2015 07:20 9,8 C 8,9 C 86 % 0 lf 1029,6 hPa 0,0 l/m 2 min 0 min 234 W/m 23,0 km/h (4 Bft)
08.06.2015 07:22 9,8 C 9,4 C 86 % 0 lf 1029,7 hPa 0,0 l/m 2 min 0 min 241 W/m 23,0 km/h (4 Bft)
08.06.2015 07:24 9,9 C 9,4 C 86 % 0 lf 1029,6 hPa 0,0 l/m 2 min 0 min 246 W/m 25,1 km/h (4 Bft)
08.06.2015 07:26 9,9 C 9,4 C 86 % 0 lf 1029,5 hPa 0,0 l/m 2 min 0 min 251 W/m 25,1 km/h (4 Bft)
08.06.2015 07:28 9,9 C 9,4 C 86 % 0 lf 1029,6 hPa 0,0 l/m 2 min 0 min 256 W/m 27,2 km/h (4 Bft)
08.06.2015 07:30 10,0 C 9,4 C 85 % 0 lf 1029,6 hPa 0,0 l/m 2 min 0 min 261 W/m 20,9 km/h (4 Bft)
08.06.2015 07:32 10,1 C 9,4 C 85 % 0 lf 1029,6 hPa 0,0 l/m 2 min 0 min 269 W/m 12,6 km/h (3 Bft)
08.06.2015 07:34 10,1 C 9,4 C 85 % 0 lf 1029,7 hPa 0,0 l/m 2 min 0 min 272 W/m 20,9 km/h (4 Bft)
08.06.2015 07:36 10,2 C 9,4 C 85 % 0 lf 1029,7 hPa 0,0 l/m 2 min 0 min 278 W/m 23,0 km/h (4 Bft)
08.06.2015 07:38 10,2 C 9,4 C 85 % 0 lf 1029,7 hPa 0,0 l/m 2 min 0 min 283 W/m 25,1 km/h (4 Bft)
08.06.2015 07:40 10,2 C 9,4 C 85 % 0 lf 1029,7 hPa 0,0 l/m 2 min 0 min 289 W/m 27,2 km/h (4 Bft)
08.06.2015 07:42 10,3 C 9,4 C 85 % 0 lf 1029,7 hPa 0,0 l/m 2 min 0 min 294 W/m 20,9 km/h (4 Bft)
08.06.2015 07:44 10,3 C 9,4 C 85 % 0 lf 1029,7 hPa 0,0 l/m 2 min 0 min 299 W/m 20,9 km/h (4 Bft)
08.06.2015 07:46 10,4 C 10,0 C 85 % 0 lf 1029,7 hPa 0,0 l/m 2 min 0 min 306 W/m 18,8 km/h (3 Bft)
08.06.2015 07:48 10,4 C 10,0 C 85 % 0 lf 1029,7 hPa 0,0 l/m 2 min 0 min 310 W/m 18,8 km/h (3 Bft)
08.06.2015 07:50 10,4 C 10,0 C 84 % 0 lf 1029,7 hPa 0,0 l/m 2 min 0 min 318 W/m 25,1 km/h (4 Bft)
08.06.2015 07:52 10,5 C 10,0 C 84 % 0 lf 1029,7 hPa 0,0 l/m 2 min 0 min 321 W/m 20,9 km/h (4 Bft)
08.06.2015 07:54 10,6 C 10,0 C 84 % 0 lf 1029,6 hPa 0,0 l/m 2 min 0 min 329 W/m 23,0 km/h (4 Bft)
08.06.2015 07:56 10,6 C 10,0 C 84 % 0 lf 1029,7 hPa 0,0 l/m 2 min 0 min 334 W/m 20,9 km/h (4 Bft)
08.06.2015 07:58 10,7 C 10,0 C 84 % 0 lf 1029,6 hPa 0,0 l/m 2 min 0 min 341 W/m 20,9 km/h (4 Bft)
08.06.2015 08:00 10,7 C 10,0 C 84 % 0 lf 1029,7 hPa 0,0 l/m 2 min 0 min 348 W/m 14,6 km/h (3 Bft)
08.06.2015 08:02 10,7 C 10,0 C 83 % 0 lf 1029,7 hPa 0,0 l/m 2 min 0 min 354 W/m 14,6 km/h (3 Bft)
08.06.2015 08:04 10,8 C 10,0 C 83 % 0 lf 1029,6 hPa 0,0 l/m 2 min 0 min 362 W/m 25,1 km/h (4 Bft)
08.06.2015 08:06 10,8 C 10,0 C 83 % 0 lf 1029,6 hPa 0,0 l/m 2 min 0 min 368 W/m 18,8 km/h (3 Bft)
08.06.2015 08:08 10,9 C 10,0 C 83 % 0 lf 1029,6 hPa 0,0 l/m 2 min 0 min 372 W/m 23,0 km/h (4 Bft)
08.06.2015 08:10 10,9 C 10,0 C 83 % 0 lf 1029,6 hPa 0,0 l/m 2 min 0 min 377 W/m 20,9 km/h (4 Bft)
08.06.2015 08:12 11,0 C 10,6 C 82 % 0 lf 1029,5 hPa 0,0 l/m 2 min 0 min 386 W/m 16,7 km/h (3 Bft)
08.06.2015 08:14 11,1 C 10,6 C 82 % 0 lf 1029,5 hPa 0,0 l/m 2 min 0 min 392 W/m 27,2 km/h (4 Bft)
08.06.2015 08:16 11,1 C 10,6 C 82 % 0 lf 1029,5 hPa 0,0 l/m 2 min 0 min 399 W/m 23,0 km/h (4 Bft)
08.06.2015 08:18 11,2 C 10,6 C 81 % 0 lf 1029,5 hPa 0,0 l/m 2 min 0 min 406 W/m 25,1 km/h (4 Bft)
08.06.2015 08:20 11,2 C 10,6 C 81 % 0 lf 1029,5 hPa 0,0 l/m 2 min 0 min 411 W/m 23,0 km/h (4 Bft)
08.06.2015 08:22 11,3 C 10,6 C 81 % 0 lf 1029,5 hPa 0,0 l/m 2 min 0 min 417 W/m 25,1 km/h (4 Bft)
08.06.2015 08:24 11,3 C 10,6 C 81 % 0 lf 1029,5 hPa 0,0 l/m 2 min 0 min 428 W/m 20,9 km/h (4 Bft)
08.06.2015 08:26 11,4 C 11,1 C 81 % 0 lf 1029,4 hPa 0,0 l/m 2 min 0 min 432 W/m 20,9 km/h (4 Bft)
08.06.2015 08:28 11,5 C 11,1 C 80 % 0 lf 1029,5 hPa 0,0 l/m 2 min 0 min 450 W/m 27,2 km/h (4 Bft)
08.06.2015 08:30 11,6 C 11,1 C 80 % 0 lf 1029,5 hPa 0,0 l/m 2 min 0 min 450 W/m 23,0 km/h (4 Bft)
08.06.2015 08:32 11,7 C 11,1 C 80 % 0 lf 1029,5 hPa 0,0 l/m 2 min 0 min 458 W/m 23,0 km/h (4 Bft)
08.06.2015 08:34 11,7 C 11,1 C 79 % 0 lf 1029,5 hPa 0,0 l/m 2 min 0 min 491 W/m 23,0 km/h (4 Bft)
08.06.2015 08:36 11,8 C 11,1 C 79 % 0 lf 1029,5 hPa 0,0 l/m 2 min 0 min 506 W/m 25,1 km/h (4 Bft)
08.06.2015 08:38 11,9 C 11,7 C 79 % 0 lf 1029,6 hPa 0,0 l/m 2 min 0 min 496 W/m 27,2 km/h (4 Bft)
08.06.2015 08:40 12,0 C 11,7 C 79 % 0 lf 1029,5 hPa 0,0 l/m 2 min 0 min 483 W/m 20,9 km/h (4 Bft)
08.06.2015 08:42 12,1 C 11,7 C 78 % 0 lf 1029,4 hPa 0,0 l/m 2 min 0 min 491 W/m 25,1 km/h (4 Bft)
08.06.2015 08:44 12,2 C 11,7 C 78 % 0 lf 1029,4 hPa 0,0 l/m 2 min 0 min 492 W/m 23,0 km/h (4 Bft)
08.06.2015 08:46 12,3 C 11,7 C 78 % 0 lf 1029,4 hPa 0,0 l/m 2 min 0 min 494 W/m 18,8 km/h (3 Bft)
08.06.2015 08:48 12,4 C 11,7 C 78 % 0 lf 1029,3 hPa 0,0 l/m 2 min 0 min 497 W/m 29,3 km/h (5 Bft)
08.06.2015 08:50 12,4 C 11,7 C 77 % 0 lf 1029,4 hPa 0,0 l/m 2 min 0 min 497 W/m 27,2 km/h (4 Bft)
08.06.2015 08:52 12,5 C 11,7 C 76 % 0 lf 1029,4 hPa 0,0 l/m 2 min 0 min 505 W/m 23,0 km/h (4 Bft)
08.06.2015 08:54 12,6 C 11,7 C 76 % 0 lf 1029,4 hPa 0,0 l/m 2 min 0 min 508 W/m 23,0 km/h (4 Bft)
08.06.2015 08:56 12,7 C 12,2 C 75 % 0 lf 1029,4 hPa 0,0 l/m 2 min 0 min 515 W/m 20,9 km/h (4 Bft)
08.06.2015 08:58 12,8 C 12,2 C 76 % 0 lf 1029,4 hPa 0,0 l/m 2 min 0 min 532 W/m 27,2 km/h (4 Bft)
08.06.2015 09:00 12,8 C 12,2 C 75 % 0 lf 1029,4 hPa 0,0 l/m 2 min 0 min 530 W/m 23,0 km/h (4 Bft)
08.06.2015 09:02 12,9 C 12,2 C 75 % 0 lf 1029,4 hPa 0,0 l/m 2 min 0 min 533 W/m 25,1 km/h (4 Bft)
08.06.2015 09:04 13,0 C 12,2 C 74 % 0 lf 1029,4 hPa 0,0 l/m 2 min 0 min 536 W/m 18,8 km/h (3 Bft)
08.06.2015 09:06 13,0 C 12,2 C 74 % 0 lf 1029,4 hPa 0,0 l/m 2 min 0 min 542 W/m 27,2 km/h (4 Bft)
08.06.2015 09:08 13,1 C 12,2 C 74 % 0 lf 1029,4 hPa 0,0 l/m 2 min 0 min 545 W/m 27,2 km/h (4 Bft)
08.06.2015 09:10 13,2 C 12,2 C 74 % 0 lf 1029,5 hPa 0,0 l/m 2 min 0 min 563 W/m 23,0 km/h (4 Bft)
08.06.2015 09:12 13,2 C 12,2 C 73 % 0 lf 1029,5 hPa 0,0 l/m 2 min 0 min 573 W/m 20,9 km/h (4 Bft)
08.06.2015 09:14 13,3 C 12,2 C 72 % 0 lf 1029,5 hPa 0,0 l/m 2 min 0 min 580 W/m 25,1 km/h (4 Bft)
08.06.2015 09:16 13,3 C 12,2 C 72 % 0 lf 1029,5 hPa 0,0 l/m 2 min 0 min 600 W/m 29,3 km/h (5 Bft)
08.06.2015 09:18 13,3 C 12,2 C 72 % 0 lf 1029,5 hPa 0,0 l/m 2 min 0 min 622 W/m 25,1 km/h (4 Bft)
08.06.2015 09:20 13,4 C 12,8 C 72 % 0 lf 1029,5 hPa 0,0 l/m 2 min 0 min 627 W/m 25,1 km/h (4 Bft)
08.06.2015 09:22 13,5 C 12,8 C 72 % 0 lf 1029,4 hPa 0,0 l/m 2 min 0 min 626 W/m 23,0 km/h (4 Bft)
08.06.2015 09:24 13,6 C 12,8 C 72 % 0 lf 1029,5 hPa 0,0 l/m 2 min 0 min 611 W/m 27,2 km/h (4 Bft)
08.06.2015 09:26 13,6 C 12,8 C 72 % 0 lf 1029,4 hPa 0,0 l/m 2 min 0 min 628 W/m 18,8 km/h (3 Bft)
08.06.2015 09:28 13,7 C 12,8 C 71 % 0 lf 1029,4 hPa 0,0 l/m 2 min 0 min 640 W/m 27,2 km/h (4 Bft)
08.06.2015 09:30 13,7 C 12,8 C 70 % 0 lf 1029,5 hPa 0,0 l/m 2 min 0 min 615 W/m 35,6 km/h (5 Bft)
08.06.2015 09:32 13,7 C 12,8 C 69 % 0 lf 1029,5 hPa 0,0 l/m 2 min 0 min 613 W/m 25,1 km/h (4 Bft)
08.06.2015 09:34 13,7 C 12,2 C 69 % 0 lf 1029,5 hPa 0,0 l/m 2 min 0 min 620 W/m 29,3 km/h (5 Bft)
08.06.2015 09:36 13,6 C 12,2 C 69 % 0 lf 1029,5 hPa 0,0 l/m 2 min 0 min 592 W/m 27,2 km/h (4 Bft)
08.06.2015 09:38 13,5 C 12,2 C 70 % 0 lf 1029,4 hPa 0,0 l/m 2 min 0 min 605 W/m 16,7 km/h (3 Bft)
08.06.2015 09:40 13,5 C 12,8 C 70 % 0 lf 1029,4 hPa 0,0 l/m 2 min 0 min 630 W/m 23,0 km/h (4 Bft)
08.06.2015 09:42 13,5 C 12,8 C 70 % 0 lf 1029,4 hPa 0,0 l/m 2 min 0 min 635 W/m 25,1 km/h (4 Bft)
08.06.2015 09:44 13,6 C 12,8 C 70 % 0 lf 1029,3 hPa 0,0 l/m 2 min 0 min 659 W/m 23,0 km/h (4 Bft)
08.06.2015 09:46 13,7 C 13,3 C 70 % 0 lf 1029,3 hPa 0,0 l/m 2 min 0 min 645 W/m 23,0 km/h (4 Bft)
08.06.2015 09:48 13,8 C 13,3 C 70 % 0 lf 1029,3 hPa 0,0 l/m 2 min 0 min 653 W/m 25,1 km/h (4 Bft)
08.06.2015 09:50 13,9 C 13,3 C 70 % 0 lf 1029,3 hPa 0,0 l/m 2 min 0 min 681 W/m 23,0 km/h (4 Bft)
08.06.2015 09:52 14,1 C 13,9 C 70 % 0 lf 1029,2 hPa 0,0 l/m 2 min 0 min 705 W/m 29,3 km/h (5 Bft)
08.06.2015 09:54 14,2 C 13,9 C 70 % 0 lf 1029,2 hPa 0,0 l/m 2 min 0 min 717 W/m 25,1 km/h (4 Bft)
08.06.2015 09:56 14,2 C 14,4 C 70 % 0 lf 1029,3 hPa 0,0 l/m 2 min 0 min 747 W/m 23,0 km/h (4 Bft)
08.06.2015 09:58 14,2 C 15,0 C 70 % 0 lf 1029,3 hPa 0,0 l/m 2 min 0 min 740 W/m 27,2 km/h (4 Bft)
08.06.2015 10:00 14,3 C 16,1 C 69 % 0 lf 1029,3 hPa 0,0 l/m 2 min 0 min 696 W/m 16,7 km/h (3 Bft)
08.06.2015 10:02 14,3 C 16,7 C 69 % 0 lf 1029,3 hPa 0,0 l/m 2 min 0 min 687 W/m 27,2 km/h (4 Bft)
08.06.2015 10:04 14,3 C 16,7 C 69 % 0 lf 1029,2 hPa 0,0 l/m 2 min 0 min 698 W/m 29,3 km/h (5 Bft)
08.06.2015 10:06 14,4 C 16,7 C 69 % 0 lf 1029,2 hPa 0,0 l/m 2 min 0 min 731 W/m 23,0 km/h (4 Bft)
08.06.2015 10:08 14,5 C 17,8 C 70 % 0 lf 1029,2 hPa 0,0 l/m 2 min 0 min 765 W/m 16,7 km/h (3 Bft)
08.06.2015 10:10 14,7 C 17,2 C 70 % 0 lf 1029,2 hPa 0,0 l/m 2 min 0 min 764 W/m 27,2 km/h (4 Bft)
08.06.2015 10:12 14,8 C 16,7 C 69 % 0 lf 1029,2 hPa 0,0 l/m 2 min 0 min 738 W/m 27,2 km/h (4 Bft)
08.06.2015 10:14 14,8 C 17,2 C 68 % 0 lf 1029,2 hPa 0,0 l/m 2 min 0 min 746 W/m 29,3 km/h (5 Bft)
08.06.2015 10:16 14,8 C 17,8 C 68 % 0 lf 1029,2 hPa 0,0 l/m 2 min 0 min 774 W/m 25,1 km/h (4 Bft)
08.06.2015 10:18 14,8 C 17,2 C 68 % 0 lf 1029,1 hPa 0,0 l/m 2 min 0 min 766 W/m 31,4 km/h (5 Bft)
08.06.2015 10:20 14,8 C 16,1 C 68 % 0 lf 1029,1 hPa 0,0 l/m 0 min 0 min 274 W/m 33,5 km/h (5 Bft)
08.06.2015 10:22 14,8 C 15,0 C 67 % 0 lf 1029,1 hPa 0,0 l/m 0 min 0 min 219 W/m 25,1 km/h (4 Bft)
08.06.2015 10:24 14,7 C 14,4 C 67 % 0 lf 1029,1 hPa 0,0 l/m 0 min 0 min 318 W/m 27,2 km/h (4 Bft)
08.06.2015 10:26 14,7 C 15,0 C 67 % 0 lf 1029,1 hPa 0,0 l/m 2 min 0 min 738 W/m 20,9 km/h (4 Bft)
08.06.2015 10:28 14,6 C 14,4 C 67 % 0 lf 1029,1 hPa 0,0 l/m 2 min 0 min 728 W/m 27,2 km/h (4 Bft)
08.06.2015 10:30 14,5 C 15,6 C 68 % 0 lf 1029,1 hPa 0,0 l/m 0 min 0 min 225 W/m 23,0 km/h (4 Bft)
08.06.2015 10:32 14,4 C 16,1 C 68 % 0 lf 1029,1 hPa 0,0 l/m 0 min 0 min 225 W/m 29,3 km/h (5 Bft)
08.06.2015 10:34 14,4 C 15,0 C 68 % 0 lf 1029,1 hPa 0,0 l/m 0 min 0 min 225 W/m 25,1 km/h (4 Bft)
08.06.2015 10:36 14,4 C 14,4 C 68 % 0 lf 1029,1 hPa 0,0 l/m 0 min 0 min 204 W/m 20,9 km/h (4 Bft)
08.06.2015 10:38 14,4 C 15,0 C 67 % 0 lf 1029,1 hPa 0,0 l/m 2 min 0 min 503 W/m 29,3 km/h (5 Bft)
08.06.2015 10:40 14,4 C 15,6 C 68 % 0 lf 1029,1 hPa 0,0 l/m 2 min 0 min 829 W/m 27,2 km/h (4 Bft)
08.06.2015 10:42 14,5 C 15,0 C 67 % 0 lf 1029,1 hPa 0,0 l/m 2 min 0 min 667 W/m 23,0 km/h (4 Bft)
08.06.2015 10:44 14,5 C 14,4 C 67 % 0 lf 1029,1 hPa 0,0 l/m 0 min 0 min 303 W/m 29,3 km/h (5 Bft)
08.06.2015 10:46 14,5 C 15,6 C 67 % 0 lf 1029,1 hPa 0,0 l/m 2 min 0 min 409 W/m 33,5 km/h (5 Bft)
08.06.2015 10:48 14,6 C 15,6 C 67 % 0 lf 1029,2 hPa 0,0 l/m 2 min 0 min 880 W/m 25,1 km/h (4 Bft)
08.06.2015 10:50 14,7 C 16,1 C 67 % 0 lf 1029,2 hPa 0,0 l/m 2 min 0 min 844 W/m 27,2 km/h (4 Bft)
08.06.2015 10:52 14,8 C 16,7 C 67 % 0 lf 1029,2 hPa 0,0 l/m 2 min 0 min 854 W/m 27,2 km/h (4 Bft)
08.06.2015 10:54 14,8 C 16,7 C 66 % 0 lf 1029,2 hPa 0,0 l/m 2 min 0 min 854 W/m 27,2 km/h (4 Bft)
08.06.2015 10:56 14,9 C 16,7 C 66 % 0 lf 1029,1 hPa 0,0 l/m 2 min 0 min 919 W/m 33,5 km/h (5 Bft)
08.06.2015 10:58 14,9 C 15,6 C 65 % 0 lf 1029,2 hPa 0,0 l/m 2 min 0 min 916 W/m 33,5 km/h (5 Bft)
08.06.2015 11:00 14,9 C 16,7 C 65 % 0 lf 1029,1 hPa 0,0 l/m 2 min 0 min 887 W/m 25,1 km/h (4 Bft)
08.06.2015 11:02 15,0 C 17,2 C 65 % 0 lf 1029,2 hPa 0,0 l/m 2 min 0 min 845 W/m 29,3 km/h (5 Bft)
08.06.2015 11:04 15,1 C 18,3 C 65 % 0 lf 1029,2 hPa 0,0 l/m 2 min 0 min 844 W/m 33,5 km/h (5 Bft)
08.06.2015 11:06 15,1 C 16,7 C 64 % 0 lf 1029,2 hPa 0,0 l/m 2 min 0 min 844 W/m 27,2 km/h (4 Bft)
08.06.2015 11:08 15,1 C 17,2 C 65 % 0 lf 1029,2 hPa 0,0 l/m 2 min 0 min 869 W/m 25,1 km/h (4 Bft)
08.06.2015 11:10 15,2 C 18,3 C 65 % 0 lf 1029,2 hPa 0,0 l/m 2 min 0 min 879 W/m 25,1 km/h (4 Bft)
08.06.2015 11:12 15,3 C 17,8 C 63 % 0 lf 1029,2 hPa 0,0 l/m 2 min 0 min 898 W/m 35,6 km/h (5 Bft)
08.06.2015 11:14 15,3 C 17,8 C 63 % 0 lf 1029,2 hPa 0,0 l/m 2 min 0 min 925 W/m 25,1 km/h (4 Bft)
08.06.2015 11:16 15,4 C 18,3 C 63 % 0 lf 1029,2 hPa 0,0 l/m 2 min 0 min 923 W/m 25,1 km/h (4 Bft)
08.06.2015 11:18 15,4 C 18,3 C 63 % 0 lf 1029,3 hPa 0,0 l/m 2 min 0 min 914 W/m 29,3 km/h (5 Bft)
08.06.2015 11:20 15,4 C 16,7 C 62 % 0 lf 1029,3 hPa 0,0 l/m 2 min 0 min 584 W/m 31,4 km/h (5 Bft)
08.06.2015 11:22 15,4 C 16,7 C 62 % 0 lf 1029,3 hPa 0,0 l/m 0 min 0 min 279 W/m 31,4 km/h (5 Bft)
08.06.2015 11:24 15,4 C 17,8 C 62 % 0 lf 1029,3 hPa 0,0 l/m 2 min 0 min 769 W/m 31,4 km/h (5 Bft)
08.06.2015 11:26 15,4 C 18,9 C 62 % 0 lf 1029,3 hPa 0,0 l/m 2 min 0 min 866 W/m 27,2 km/h (4 Bft)
08.06.2015 11:28 15,5 C 18,3 C 62 % 0 lf 1029,3 hPa 0,0 l/m 2 min 0 min 899 W/m 33,5 km/h (5 Bft)
08.06.2015 11:30 15,6 C 18,9 C 63 % 0 lf 1029,3 hPa 0,0 l/m 2 min 0 min 888 W/m 27,2 km/h (4 Bft)
08.06.2015 11:32 15,7 C 17,8 C 62 % 0 lf 1029,3 hPa 0,0 l/m 2 min 0 min 914 W/m 31,4 km/h (5 Bft)
08.06.2015 11:34 15,8 C 16,7 C 62 % 0 lf 1029,3 hPa 0,0 l/m 2 min 0 min 940 W/m 29,3 km/h (5 Bft)
08.06.2015 11:36 15,8 C 16,1 C 61 % 0 lf 1029,3 hPa 0,0 l/m 2 min 0 min 947 W/m 29,3 km/h (5 Bft)
08.06.2015 11:38 15,9 C 16,1 C 61 % 0 lf 1029,4 hPa 0,0 l/m 0 min 0 min 357 W/m 23,0 km/h (4 Bft)
08.06.2015 11:40 15,9 C 17,2 C 61 % 0 lf 1029,4 hPa 0,0 l/m 2 min 0 min 892 W/m 29,3 km/h (5 Bft)
08.06.2015 11:42 15,9 C 18,3 C 61 % 0 lf 1029,4 hPa 0,0 l/m 2 min 0 min 894 W/m 27,2 km/h (4 Bft)
08.06.2015 11:44 15,9 C 19,4 C 62 % 0 lf 1029,4 hPa 0,0 l/m 2 min 0 min 897 W/m 33,5 km/h (5 Bft)
08.06.2015 11:46 16,1 C 19,4 C 61 % 0 lf 1029,4 hPa 0,0 l/m 2 min 0 min 923 W/m 25,1 km/h (4 Bft)
08.06.2015 11:48 16,2 C 20,0 C 61 % 0 lf 1029,3 hPa 0,0 l/m 2 min 0 min 870 W/m 25,1 km/h (4 Bft)
08.06.2015 11:50 16,3 C 20,6 C 61 % 0 lf 1029,3 hPa 0,0 l/m 2 min 0 min 853 W/m 27,2 km/h (4 Bft)
08.06.2015 11:52 16,4 C 21,1 C 60 % 0 lf 1029,3 hPa 0,0 l/m 2 min 0 min 939 W/m 23,0 km/h (4 Bft)
08.06.2015 11:54 16,5 C 21,1 C 60 % 0 lf 1029,3 hPa 0,0 l/m 2 min 0 min 982 W/m 27,2 km/h (4 Bft)
08.06.2015 11:56 16,6 C 20,0 C 60 % 0 lf 1029,2 hPa 0,0 l/m 2 min 0 min 983 W/m 27,2 km/h (4 Bft)
08.06.2015 11:58 16,6 C 18,9 C 59 % 0 lf 1029,2 hPa 0,0 l/m 2 min 0 min 983 W/m 20,9 km/h (4 Bft)
08.06.2015 12:00 16,7 C 20,6 C 61 % 0 lf 1029,3 hPa 0,0 l/m 2 min 0 min 983 W/m 25,1 km/h (4 Bft)
08.06.2015 12:02 16,7 C 20,6 C 60 % 0 lf 1029,3 hPa 0,0 l/m 2 min 0 min 1005 W/m 37,7 km/h (5 Bft)
08.06.2015 12:05 16,7 C 20,0 C 59 % 0 lf 1029,2 hPa 0,0 l/m 2 min 0 min 1013 W/m 31,4 km/h (5 Bft)
08.06.2015 12:06 16,7 C 19,4 C 59 % 0 lf 1029,2 hPa 0,0 l/m 1 min 0 min 931 W/m 31,4 km/h (5 Bft)
08.06.2015 12:08 16,7 C 17,8 C 59 % 0 lf 1029,2 hPa 0,0 l/m 0 min 0 min 281 W/m 35,6 km/h (5 Bft)
08.06.2015 12:10 16,5 C 17,2 C 59 % 0 lf 1029,2 hPa 0,0 l/m 0 min 0 min 300 W/m 27,2 km/h (4 Bft)
08.06.2015 12:12 16,4 C 18,3 C 59 % 0 lf 1029,2 hPa 0,0 l/m 2 min 0 min 500 W/m 35,6 km/h (5 Bft)
08.06.2015 12:14 16,4 C 18,9 C 59 % 0 lf 1029,2 hPa 0,0 l/m 2 min 0 min 803 W/m 39,7 km/h (6 Bft)
08.06.2015 12:16 16,4 C 18,9 C 60 % 0 lf 1029,1 hPa 0,0 l/m 2 min 0 min 977 W/m 25,1 km/h (4 Bft)
08.06.2015 12:18 16,4 C 17,8 C 60 % 0 lf 1029,2 hPa 0,0 l/m 0 min 0 min 330 W/m 27,2 km/h (4 Bft)
08.06.2015 12:20 16,4 C 18,9 C 60 % 0 lf 1029,1 hPa 0,0 l/m 0 min 0 min 269 W/m 18,8 km/h (3 Bft)
08.06.2015 12:22 16,5 C 18,9 C 60 % 0 lf 1029,1 hPa 0,0 l/m 2 min 0 min 546 W/m 31,4 km/h (5 Bft)
08.06.2015 12:24 16,5 C 17,2 C 59 % 0 lf 1029,1 hPa 0,0 l/m 0 min 0 min 263 W/m 33,5 km/h (5 Bft)
08.06.2015 12:26 16,5 C 18,3 C 60 % 0 lf 1029,1 hPa 0,0 l/m 2 min 0 min 771 W/m 25,1 km/h (4 Bft)
08.06.2015 12:28 16,6 C 17,8 C 59 % 0 lf 1029,2 hPa 0,0 l/m 2 min 0 min 1062 W/m 37,7 km/h (5 Bft)
08.06.2015 12:30 16,6 C 17,8 C 60 % 0 lf 1029,1 hPa 0,0 l/m 0 min 0 min 321 W/m 33,5 km/h (5 Bft)
08.06.2015 12:32 16,6 C 17,8 C 60 % 0 lf 1029,1 hPa 0,0 l/m 0 min 0 min 253 W/m 35,6 km/h (5 Bft)
08.06.2015 12:34 16,7 C 18,9 C 59 % 0 lf 1029,1 hPa 0,0 l/m 2 min 0 min 711 W/m 23,0 km/h (4 Bft)
08.06.2015 12:36 16,8 C 20,0 C 59 % 0 lf 1029,1 hPa 0,0 l/m 2 min 0 min 771 W/m 27,2 km/h (4 Bft)
08.06.2015 12:38 16,9 C 18,9 C 59 % 0 lf 1029,1 hPa 0,0 l/m 2 min 0 min 927 W/m 31,4 km/h (5 Bft)
08.06.2015 12:40 16,8 C 17,2 C 58 % 0 lf 1029,1 hPa 0,0 l/m 2 min 0 min 565 W/m 29,3 km/h (5 Bft)
08.06.2015 12:42 16,8 C 17,2 C 58 % 0 lf 1029,1 hPa 0,0 l/m 0 min 0 min 256 W/m 25,1 km/h (4 Bft)
08.06.2015 12:44 16,8 C 18,3 C 58 % 0 lf 1029,0 hPa 0,0 l/m 0 min 0 min 414 W/m 25,1 km/h (4 Bft)
08.06.2015 12:46 16,8 C 18,3 C 59 % 0 lf 1029,0 hPa 0,0 l/m 2 min 0 min 900 W/m 31,4 km/h (5 Bft)
08.06.2015 12:48 16,8 C 18,3 C 58 % 0 lf 1028,9 hPa 0,0 l/m 2 min 0 min 903 W/m 37,7 km/h (5 Bft)
08.06.2015 12:50 16,9 C 18,3 C 58 % 0 lf 1029,0 hPa 0,0 l/m 2 min 0 min 980 W/m 29,3 km/h (5 Bft)
08.06.2015 12:52 16,9 C 17,8 C 57 % 0 lf 1029,0 hPa 0,0 l/m 2 min 0 min 989 W/m 33,5 km/h (5 Bft)
08.06.2015 12:54 17,0 C 17,8 C 57 % 0 lf 1029,0 hPa 0,0 l/m 2 min 0 min 992 W/m 37,7 km/h (5 Bft)
08.06.2015 12:56 17,1 C 17,8 C 57 % 0 lf 1028,9 hPa 0,0 l/m 2 min 0 min 998 W/m 29,3 km/h (5 Bft)
08.06.2015 12:58 17,2 C 17,8 C 57 % 0 lf 1028,8 hPa 0,0 l/m 2 min 0 min 983 W/m 27,2 km/h (4 Bft)
08.06.2015 13:00 17,2 C 17,8 C 56 % 0 lf 1028,9 hPa 0,0 l/m 2 min 0 min 879 W/m 37,7 km/h (5 Bft)
08.06.2015 13:02 17,3 C 18,3 C 57 % 0 lf 1029,0 hPa 0,0 l/m 2 min 0 min 584 W/m 35,6 km/h (5 Bft)
08.06.2015 13:04 17,4 C 18,9 C 56 % 0 lf 1029,0 hPa 0,0 l/m 2 min 0 min 927 W/m 29,3 km/h (5 Bft)
08.06.2015 13:06 17,6 C 20,0 C 57 % 0 lf 1028,9 hPa 0,0 l/m 2 min 0 min 926 W/m 23,0 km/h (4 Bft)
08.06.2015 13:08 17,8 C 20,0 C 56 % 0 lf 1028,8 hPa 0,0 l/m 2 min 0 min 930 W/m 27,2 km/h (4 Bft)
08.06.2015 13:10 17,9 C 20,0 C 55 % 0 lf 1028,9 hPa 0,0 l/m 2 min 0 min 758 W/m 31,4 km/h (5 Bft)
08.06.2015 13:12 17,9 C 18,3 C 54 % 0 lf 1028,8 hPa 0,0 l/m 2 min 0 min 810 W/m 33,5 km/h (5 Bft)
08.06.2015 13:14 17,8 C 17,8 C 55 % 0 lf 1028,8 hPa 0,0 l/m 2 min 0 min 437 W/m 27,2 km/h (4 Bft)
08.06.2015 13:16 17,8 C 17,8 C 55 % 0 lf 1028,8 hPa 0,0 l/m 0 min 0 min 316 W/m 31,4 km/h (5 Bft)
08.06.2015 13:18 17,6 C 17,2 C 55 % 0 lf 1028,9 hPa 0,0 l/m 2 min 0 min 589 W/m 33,5 km/h (5 Bft)
08.06.2015 13:20 17,4 C 16,7 C 55 % 0 lf 1028,9 hPa 0,0 l/m 2 min 0 min 758 W/m 31,4 km/h (5 Bft)
08.06.2015 13:22 17,4 C 17,2 C 56 % 0 lf 1028,9 hPa 0,0 l/m 2 min 0 min 974 W/m 29,3 km/h (5 Bft)
08.06.2015 13:24 17,4 C 17,8 C 56 % 0 lf 1028,9 hPa 0,0 l/m 2 min 0 min 1011 W/m 23,0 km/h (4 Bft)
08.06.2015 13:26 17,5 C 17,8 C 56 % 0 lf 1028,8 hPa 0,0 l/m 2 min 0 min 982 W/m 16,7 km/h (3 Bft)
08.06.2015 13:28 17,7 C 17,8 C 56 % 0 lf 1028,7 hPa 0,0 l/m 2 min 0 min 998 W/m 29,3 km/h (5 Bft)
08.06.2015 13:30 17,8 C 18,9 C 56 % 0 lf 1028,8 hPa 0,0 l/m 2 min 0 min 1063 W/m 33,5 km/h (5 Bft)
08.06.2015 13:32 17,8 C 18,3 C 55 % 0 lf 1028,8 hPa 0,0 l/m 2 min 0 min 1055 W/m 31,4 km/h (5 Bft)
08.06.2015 13:34 17,9 C 17,8 C 54 % 0 lf 1028,7 hPa 0,0 l/m 2 min 0 min 1031 W/m 25,1 km/h (4 Bft)
08.06.2015 13:36 17,9 C 17,8 C 55 % 0 lf 1028,7 hPa 0,0 l/m 2 min 0 min 1034 W/m 23,0 km/h (4 Bft)
08.06.2015 13:38 17,9 C 17,8 C 55 % 0 lf 1028,7 hPa 0,0 l/m 2 min 0 min 1034 W/m 27,2 km/h (4 Bft)
08.06.2015 13:40 18,1 C 18,3 C 56 % 0 lf 1028,7 hPa 0,0 l/m 2 min 0 min 1055 W/m 25,1 km/h (4 Bft)
08.06.2015 13:42 18,1 C 17,8 C 54 % 0 lf 1028,7 hPa 0,0 l/m 2 min 0 min 577 W/m 31,4 km/h (5 Bft)
08.06.2015 13:44 18,1 C 17,2 C 53 % 0 lf 1028,7 hPa 0,0 l/m 0 min 0 min 256 W/m 20,9 km/h (4 Bft)
08.06.2015 13:46 18,0 C 17,2 C 53 % 0 lf 1028,7 hPa 0,0 l/m 2 min 0 min 641 W/m 23,0 km/h (4 Bft)
08.06.2015 13:48 18,0 C 17,8 C 54 % 0 lf 1028,7 hPa 0,0 l/m 2 min 0 min 1006 W/m 35,6 km/h (5 Bft)
08.06.2015 13:50 18,0 C 17,8 C 54 % 0 lf 1028,6 hPa 0,0 l/m 2 min 0 min 1022 W/m 29,3 km/h (5 Bft)
08.06.2015 13:52 17,9 C 17,2 C 53 % 0 lf 1028,6 hPa 0,0 l/m 2 min 0 min 1034 W/m 29,3 km/h (5 Bft)
08.06.2015 13:54 17,9 C 17,8 C 53 % 0 lf 1028,5 hPa 0,0 l/m 2 min 0 min 1019 W/m 20,9 km/h (4 Bft)
08.06.2015 13:56 17,9 C 18,3 C 55 % 0 lf 1028,5 hPa 0,0 l/m 2 min 0 min 1062 W/m 18,8 km/h (3 Bft)
08.06.2015 13:58 18,1 C 18,3 C 54 % 0 lf 1028,5 hPa 0,0 l/m 2 min 0 min 682 W/m 31,4 km/h (5 Bft)
08.06.2015 14:00 18,1 C 18,3 C 53 % 0 lf 1028,5 hPa 0,0 l/m 0 min 0 min 325 W/m 25,1 km/h (4 Bft)
08.06.2015 14:02 18,2 C 18,9 C 54 % 0 lf 1028,5 hPa 0,0 l/m 0 min 0 min 325 W/m 23,0 km/h (4 Bft)
08.06.2015 14:04 18,3 C 18,3 C 54 % 0 lf 1028,6 hPa 0,0 l/m 0 min 0 min 321 W/m 31,4 km/h (5 Bft)
08.06.2015 14:06 18,3 C 17,8 C 52 % 0 lf 1028,5 hPa 0,0 l/m 2 min 0 min 442 W/m 31,4 km/h (5 Bft)
08.06.2015 14:08 18,2 C 17,8 C 51 % 0 lf 1028,5 hPa 0,0 l/m 2 min 0 min 1001 W/m 29,3 km/h (5 Bft)
08.06.2015 14:10 18,2 C 18,3 C 52 % 0 lf 1028,5 hPa 0,0 l/m 2 min 0 min 1041 W/m 27,2 km/h (4 Bft)
08.06.2015 14:12 18,2 C 17,8 C 52 % 0 lf 1028,5 hPa 0,0 l/m 2 min 0 min 990 W/m 31,4 km/h (5 Bft)
08.06.2015 14:14 18,2 C 17,8 C 52 % 0 lf 1028,5 hPa 0,0 l/m 2 min 0 min 945 W/m 20,9 km/h (4 Bft)
08.06.2015 14:16 18,2 C 17,8 C 52 % 0 lf 1028,4 hPa 0,0 l/m 2 min 0 min 969 W/m 31,4 km/h (5 Bft)
08.06.2015 14:18 18,2 C 18,9 C 53 % 0 lf 1028,4 hPa 0,0 l/m 2 min 0 min 1010 W/m 23,0 km/h (4 Bft)
08.06.2015 14:20 18,3 C 18,3 C 52 % 0 lf 1028,4 hPa 0,0 l/m 2 min 0 min 716 W/m 33,5 km/h (5 Bft)
08.06.2015 14:22 18,2 C 17,8 C 51 % 0 lf 1028,4 hPa 0,0 l/m 0 min 0 min 242 W/m 27,2 km/h (4 Bft)
08.06.2015 14:24 18,3 C 18,3 C 53 % 0 lf 1028,4 hPa 0,0 l/m 0 min 0 min 241 W/m 20,9 km/h (4 Bft)
08.06.2015 14:26 18,3 C 18,3 C 53 % 0 lf 1028,4 hPa 0,0 l/m 2 min 0 min 946 W/m 25,1 km/h (4 Bft)
08.06.2015 14:28 18,4 C 18,3 C 53 % 0 lf 1028,4 hPa 0,0 l/m 2 min 0 min 950 W/m 20,9 km/h (4 Bft)
08.06.2015 14:30 18,4 C 17,2 C 50 % 0 lf 1028,4 hPa 0,0 l/m 0 min 0 min 246 W/m 29,3 km/h (5 Bft)
08.06.2015 14:32 18,3 C 17,8 C 51 % 0 lf 1028,3 hPa 0,0 l/m 0 min 0 min 251 W/m 20,9 km/h (4 Bft)
08.06.2015 14:34 18,4 C 18,3 C 52 % 0 lf 1028,3 hPa 0,0 l/m 2 min 0 min 1012 W/m 20,9 km/h (4 Bft)
08.06.2015 14:36 18,4 C 18,9 C 52 % 0 lf 1028,3 hPa 0,0 l/m 2 min 0 min 1032 W/m 33,5 km/h (5 Bft)
08.06.2015 14:38 18,6 C 19,4 C 51 % 0 lf 1028,3 hPa 0,0 l/m 2 min 0 min 1026 W/m 31,4 km/h (5 Bft)
08.06.2015 14:40 18,7 C 19,4 C 51 % 0 lf 1028,2 hPa 0,0 l/m 2 min 0 min 1036 W/m 25,1 km/h (4 Bft)
08.06.2015 14:42 18,9 C 19,4 C 50 % 0 lf 1028,2 hPa 0,0 l/m 2 min 0 min 1014 W/m 33,5 km/h (5 Bft)
08.06.2015 14:44 19,0 C 19,4 C 50 % 0 lf 1028,3 hPa 0,0 l/m 2 min 0 min 1014 W/m 31,4 km/h (5 Bft)
08.06.2015 14:46 19,1 C 18,9 C 50 % 0 lf 1028,1 hPa 0,0 l/m 2 min 0 min 1022 W/m 29,3 km/h (5 Bft)
08.06.2015 14:48 19,2 C 18,9 C 50 % 0 lf 1028,1 hPa 0,0 l/m 2 min 0 min 1070 W/m 27,2 km/h (4 Bft)
08.06.2015 14:50 19,2 C 19,4 C 50 % 0 lf 1028,0 hPa 0,0 l/m 2 min 0 min 1104 W/m 29,3 km/h (5 Bft)
08.06.2015 14:52 19,1 C 18,9 C 50 % 0 lf 1028,0 hPa 0,0 l/m 2 min 0 min 952 W/m 35,6 km/h (5 Bft)
08.06.2015 14:54 19,1 C 18,3 C 49 % 0 lf 1028,0 hPa 0,0 l/m 0 min 0 min 276 W/m 33,5 km/h (5 Bft)
08.06.2015 14:56 18,9 C 18,3 C 50 % 0 lf 1028,1 hPa 0,0 l/m 2 min 0 min 601 W/m 25,1 km/h (4 Bft)
08.06.2015 14:58 18,8 C 18,3 C 50 % 0 lf 1028,0 hPa 0,0 l/m 2 min 0 min 1046 W/m 27,2 km/h (4 Bft)
08.06.2015 15:00 18,8 C 18,9 C 51 % 0 lf 1028,0 hPa 0,0 l/m 2 min 0 min 1030 W/m 35,6 km/h (5 Bft)
08.06.2015 15:02 18,9 C 18,9 C 50 % 0 lf 1028,0 hPa 0,0 l/m 2 min 0 min 964 W/m 31,4 km/h (5 Bft)
08.06.2015 15:04 18,9 C 19,4 C 51 % 0 lf 1028,0 hPa 0,0 l/m 2 min 0 min 955 W/m 27,2 km/h (4 Bft)
08.06.2015 15:06 19,1 C 19,4 C 50 % 0 lf 1028,0 hPa 0,0 l/m 2 min 0 min 976 W/m 33,5 km/h (5 Bft)
08.06.2015 15:08 19,1 C 18,9 C 49 % 0 lf 1027,9 hPa 0,0 l/m 2 min 0 min 995 W/m 37,7 km/h (5 Bft)
08.06.2015 15:10 19,0 C 18,9 C 50 % 0 lf 1028,0 hPa 0,0 l/m 2 min 0 min 1002 W/m 29,3 km/h (5 Bft)
08.06.2015 15:12 19,1 C 18,9 C 51 % 0 lf 1027,9 hPa 0,0 l/m 2 min 0 min 405 W/m 25,1 km/h (4 Bft)
08.06.2015 15:14 19,1 C 19,4 C 51 % 0 lf 1027,8 hPa 0,0 l/m 2 min 0 min 951 W/m 27,2 km/h (4 Bft)
08.06.2015 15:16 19,2 C 20,0 C 51 % 0 lf 1027,8 hPa 0,0 l/m 2 min 0 min 1068 W/m 35,6 km/h (5 Bft)
08.06.2015 15:18 19,3 C 19,4 C 50 % 0 lf 1027,9 hPa 0,0 l/m 2 min 0 min 834 W/m 43,9 km/h (6 Bft)
08.06.2015 15:20 19,3 C 20,0 C 50 % 0 lf 1027,8 hPa 0,0 l/m 2 min 0 min 439 W/m 29,3 km/h (5 Bft)
08.06.2015 15:22 19,4 C 19,4 C 48 % 0 lf 1027,8 hPa 0,0 l/m 2 min 0 min 765 W/m 20,9 km/h (4 Bft)
08.06.2015 15:24 19,4 C 19,4 C 49 % 0 lf 1027,8 hPa 0,0 l/m 2 min 0 min 949 W/m 27,2 km/h (4 Bft)
08.06.2015 15:26 19,4 C 19,4 C 49 % 0 lf 1027,8 hPa 0,0 l/m 2 min 0 min 989 W/m 33,5 km/h (5 Bft)
08.06.2015 15:28 19,5 C 19,4 C 49 % 0 lf 1027,8 hPa 0,0 l/m 2 min 0 min 523 W/m 31,4 km/h (5 Bft)
08.06.2015 15:30 19,4 C 18,3 C 48 % 0 lf 1027,7 hPa 0,0 l/m 0 min 0 min 270 W/m 37,7 km/h (5 Bft)
08.06.2015 15:32 19,2 C 18,3 C 48 % 0 lf 1027,7 hPa 0,0 l/m 2 min 0 min 661 W/m 35,6 km/h (5 Bft)
08.06.2015 15:34 19,1 C 18,3 C 49 % 0 lf 1027,8 hPa 0,0 l/m 2 min 0 min 920 W/m 27,2 km/h (4 Bft)
08.06.2015 15:36 19,0 C 18,9 C 49 % 0 lf 1027,7 hPa 0,0 l/m 2 min 0 min 913 W/m 29,3 km/h (5 Bft)
08.06.2015 15:38 18,9 C 18,9 C 49 % 0 lf 1027,7 hPa 0,0 l/m 2 min 0 min 953 W/m 16,7 km/h (3 Bft)
08.06.2015 15:40 18,9 C 18,9 C 50 % 0 lf 1027,7 hPa 0,0 l/m 2 min 0 min 769 W/m 37,7 km/h (5 Bft)
08.06.2015 15:42 18,8 C 17,8 C 49 % 0 lf 1027,7 hPa 0,0 l/m 0 min 0 min 254 W/m 27,2 km/h (4 Bft)
08.06.2015 15:44 18,7 C 17,8 C 49 % 0 lf 1027,7 hPa 0,0 l/m 0 min 0 min 251 W/m 27,2 km/h (4 Bft)
08.06.2015 15:46 18,7 C 19,4 C 50 % 0 lf 1027,6 hPa 0,0 l/m 2 min 0 min 688 W/m 20,9 km/h (4 Bft)
08.06.2015 15:48 18,7 C 18,9 C 50 % 0 lf 1027,6 hPa 0,0 l/m 2 min 0 min 854 W/m 18,8 km/h (3 Bft)
08.06.2015 15:50 18,7 C 19,4 C 50 % 0 lf 1027,5 hPa 0,0 l/m 2 min 0 min 855 W/m 25,1 km/h (4 Bft)
08.06.2015 15:52 18,7 C 19,4 C 50 % 0 lf 1027,6 hPa 0,0 l/m 2 min 0 min 903 W/m 20,9 km/h (4 Bft)
08.06.2015 15:54 18,8 C 20,0 C 50 % 0 lf 1027,5 hPa 0,0 l/m 2 min 0 min 944 W/m 23,0 km/h (4 Bft)
08.06.2015 15:56 18,9 C 18,9 C 50 % 0 lf 1027,5 hPa 0,0 l/m 2 min 0 min 621 W/m 31,4 km/h (5 Bft)
08.06.2015 15:58 18,8 C 18,3 C 50 % 0 lf 1027,6 hPa 0,0 l/m 2 min 0 min 526 W/m 33,5 km/h (5 Bft)
08.06.2015 16:00 18,8 C 18,3 C 50 % 0 lf 1027,6 hPa 0,0 l/m 0 min 0 min 291 W/m 33,5 km/h (5 Bft)
08.06.2015 16:02 18,8 C 18,3 C 49 % 0 lf 1027,6 hPa 0,0 l/m 0 min 0 min 250 W/m 23,0 km/h (4 Bft)
08.06.2015 16:04 18,8 C 18,9 C 50 % 0 lf 1027,5 hPa 0,0 l/m 2 min 0 min 689 W/m 20,9 km/h (4 Bft)
08.06.2015 16:06 18,8 C 18,9 C 50 % 0 lf 1027,5 hPa 0,0 l/m 2 min 0 min 838 W/m 23,0 km/h (4 Bft)
08.06.2015 16:08 18,8 C 18,9 C 49 % 0 lf 1027,4 hPa 0,0 l/m 2 min 0 min 868 W/m 39,7 km/h (6 Bft)
08.06.2015 16:10 18,8 C 19,4 C 49 % 0 lf 1027,6 hPa 0,0 l/m 2 min 0 min 700 W/m 37,7 km/h (5 Bft)
08.06.2015 16:12 18,8 C 18,9 C 49 % 0 lf 1027,5 hPa 0,0 l/m 0 min 0 min 220 W/m 29,3 km/h (5 Bft)
08.06.2015 16:14 18,8 C 21,7 C 50 % 0 lf 1027,4 hPa 0,0 l/m 2 min 0 min 557 W/m 31,4 km/h (5 Bft)
08.06.2015 16:16 18,9 C 23,3 C 50 % 0 lf 1027,3 hPa 0,0 l/m 2 min 0 min 779 W/m 23,0 km/h (4 Bft)
08.06.2015 16:18 19,1 C 23,3 C 50 % 0 lf 1027,2 hPa 0,0 l/m 2 min 0 min 780 W/m 39,7 km/h (6 Bft)
08.06.2015 16:20 19,1 C 23,3 C 50 % 0 lf 1027,3 hPa 0,0 l/m 2 min 0 min 809 W/m 37,7 km/h (5 Bft)
08.06.2015 16:22 19,1 C 22,8 C 50 % 0 lf 1027,3 hPa 0,0 l/m 2 min 0 min 823 W/m 25,1 km/h (4 Bft)
08.06.2015 16:24 19,2 C 24,4 C 49 % 0 lf 1027,2 hPa 0,0 l/m 2 min 0 min 786 W/m 27,2 km/h (4 Bft)
08.06.2015 16:26 19,3 C 25,0 C 49 % 0 lf 1027,3 hPa 0,0 l/m 2 min 0 min 796 W/m 27,2 km/h (4 Bft)
08.06.2015 16:28 19,4 C 22,2 C 48 % 0 lf 1027,2 hPa 0,0 l/m 2 min 0 min 613 W/m 29,3 km/h (5 Bft)
08.06.2015 16:30 19,3 C 22,8 C 48 % 0 lf 1027,1 hPa 0,0 l/m 2 min 0 min 542 W/m 35,6 km/h (5 Bft)
08.06.2015 16:32 19,3 C 21,1 C 49 % 0 lf 1027,2 hPa 0,0 l/m 2 min 0 min 791 W/m 33,5 km/h (5 Bft)
08.06.2015 16:34 19,1 C 20,6 C 48 % 0 lf 1027,2 hPa 0,0 l/m 2 min 0 min 791 W/m 29,3 km/h (5 Bft)
08.06.2015 16:36 19,1 C 22,2 C 49 % 0 lf 1027,2 hPa 0,0 l/m 2 min 0 min 809 W/m 27,2 km/h (4 Bft)
08.06.2015 16:38 19,0 C 23,3 C 49 % 0 lf 1027,1 hPa 0,0 l/m 2 min 0 min 832 W/m 27,2 km/h (4 Bft)
08.06.2015 16:40 19,0 C 23,3 C 50 % 0 lf 1027,1 hPa 0,0 l/m 2 min 0 min 836 W/m 31,4 km/h (5 Bft)
08.06.2015 16:42 18,9 C 22,8 C 49 % 0 lf 1027,1 hPa 0,0 l/m 2 min 0 min 794 W/m 37,7 km/h (5 Bft)
08.06.2015 16:44 19,0 C 23,3 C 49 % 0 lf 1027,1 hPa 0,0 l/m 2 min 0 min 766 W/m 29,3 km/h (5 Bft)
08.06.2015 16:46 19,0 C 22,8 C 48 % 0 lf 1027,0 hPa 0,0 l/m 2 min 0 min 728 W/m 29,3 km/h (5 Bft)
08.06.2015 16:48 19,0 C 23,3 C 49 % 0 lf 1027,1 hPa 0,0 l/m 2 min 0 min 715 W/m 31,4 km/h (5 Bft)
08.06.2015 16:50 19,0 C 23,3 C 48 % 0 lf 1027,1 hPa 0,0 l/m 2 min 0 min 698 W/m 31,4 km/h (5 Bft)
08.06.2015 16:52 18,9 C 22,2 C 47 % 0 lf 1027,1 hPa 0,0 l/m 2 min 0 min 696 W/m 31,4 km/h (5 Bft)
08.06.2015 16:54 18,9 C 22,2 C 48 % 0 lf 1026,9 hPa 0,0 l/m 2 min 0 min 662 W/m 25,1 km/h (4 Bft)
08.06.2015 16:56 18,9 C 20,0 C 49 % 0 lf 1027,0 hPa 0,0 l/m 2 min 0 min 513 W/m 27,2 km/h (4 Bft)
08.06.2015 16:58 18,9 C 18,9 C 49 % 0 lf 1027,1 hPa 0,0 l/m 0 min 0 min 187 W/m 37,7 km/h (5 Bft)
08.06.2015 17:00 18,8 C 21,1 C 50 % 0 lf 1027,0 hPa 0,0 l/m 2 min 0 min 484 W/m 37,7 km/h (5 Bft)
08.06.2015 17:02 18,7 C 20,6 C 49 % 0 lf 1027,1 hPa 0,0 l/m 2 min 0 min 655 W/m 35,6 km/h (5 Bft)
08.06.2015 17:04 18,6 C 18,9 C 49 % 0 lf 1027,2 hPa 0,0 l/m 2 min 0 min 503 W/m 39,7 km/h (6 Bft)
08.06.2015 17:06 18,4 C 18,3 C 49 % 0 lf 1027,0 hPa 0,0 l/m 0 min 0 min 288 W/m 33,5 km/h (5 Bft)
08.06.2015 17:08 18,3 C 18,9 C 49 % 0 lf 1026,9 hPa 0,0 l/m 2 min 0 min 513 W/m 33,5 km/h (5 Bft)
08.06.2015 17:10 18,3 C 18,9 C 49 % 0 lf 1026,9 hPa 0,0 l/m 2 min 0 min 635 W/m 27,2 km/h (4 Bft)
08.06.2015 17:12 18,3 C 18,9 C 49 % 0 lf 1026,9 hPa 0,0 l/m 2 min 0 min 496 W/m 27,2 km/h (4 Bft)
08.06.2015 17:14 18,3 C 18,3 C 50 % 0 lf 1026,9 hPa 0,0 l/m 2 min 0 min 354 W/m 31,4 km/h (5 Bft)
08.06.2015 17:16 18,3 C 17,8 C 50 % 0 lf 1027,1 hPa 0,0 l/m 2 min 0 min 338 W/m 33,5 km/h (5 Bft)
08.06.2015 17:18 18,2 C 17,8 C 51 % 0 lf 1027,0 hPa 0,0 l/m 2 min 0 min 366 W/m 25,1 km/h (4 Bft)
08.06.2015 17:20 18,2 C 17,8 C 51 % 0 lf 1027,0 hPa 0,0 l/m 2 min 0 min 359 W/m 27,2 km/h (4 Bft)
08.06.2015 17:22 18,2 C 17,8 C 51 % 0 lf 1027,1 hPa 0,0 l/m 0 min 0 min 255 W/m 29,3 km/h (5 Bft)
08.06.2015 17:24 18,1 C 17,2 C 51 % 0 lf 1026,9 hPa 0,0 l/m 0 min 0 min 214 W/m 27,2 km/h (4 Bft)
08.06.2015 17:26 18,1 C 17,2 C 51 % 0 lf 1027,0 hPa 0,0 l/m 2 min 0 min 319 W/m 20,9 km/h (4 Bft)
08.06.2015 17:28 18,1 C 17,8 C 51 % 0 lf 1027,0 hPa 0,0 l/m 2 min 0 min 406 W/m 23,0 km/h (4 Bft)
08.06.2015 17:30 18,1 C 17,8 C 51 % 0 lf 1027,0 hPa 0,0 l/m 2 min 0 min 477 W/m 29,3 km/h (5 Bft)
08.06.2015 17:32 18,1 C 18,3 C 51 % 0 lf 1026,8 hPa 0,0 l/m 2 min 0 min 507 W/m 31,4 km/h (5 Bft)
08.06.2015 17:34 18,2 C 18,3 C 52 % 0 lf 1026,8 hPa 0,0 l/m 2 min 0 min 510 W/m 20,9 km/h (4 Bft)
08.06.2015 17:36 18,3 C 18,3 C 51 % 0 lf 1026,7 hPa 0,0 l/m 2 min 0 min 568 W/m 27,2 km/h (4 Bft)
08.06.2015 17:38 18,3 C 17,8 C 50 % 0 lf 1026,8 hPa 0,0 l/m 2 min 0 min 524 W/m 31,4 km/h (5 Bft)
08.06.2015 17:40 18,3 C 17,2 C 49 % 0 lf 1026,9 hPa 0,0 l/m 0 min 0 min 232 W/m 33,5 km/h (5 Bft)
08.06.2015 17:42 18,3 C 17,2 C 50 % 0 lf 1026,9 hPa 0,0 l/m 2 min 0 min 450 W/m 29,3 km/h (5 Bft)
08.06.2015 17:44 18,3 C 17,8 C 51 % 0 lf 1026,9 hPa 0,0 l/m 2 min 0 min 643 W/m 31,4 km/h (5 Bft)
08.06.2015 17:46 18,3 C 17,8 C 51 % 0 lf 1026,8 hPa 0,0 l/m 2 min 0 min 580 W/m 33,5 km/h (5 Bft)
08.06.2015 17:48 18,3 C 17,8 C 51 % 0 lf 1026,9 hPa 0,0 l/m 2 min 0 min 566 W/m 31,4 km/h (5 Bft)
08.06.2015 17:50 18,3 C 17,8 C 50 % 0 lf 1026,6 hPa 0,0 l/m 2 min 0 min 555 W/m 35,6 km/h (5 Bft)
08.06.2015 17:52 18,3 C 17,8 C 50 % 0 lf 1026,7 hPa 0,0 l/m 2 min 0 min 598 W/m 18,8 km/h (3 Bft)
08.06.2015 17:54 18,3 C 17,8 C 49 % 0 lf 1026,7 hPa 0,0 l/m 2 min 0 min 649 W/m 29,3 km/h (5 Bft)
08.06.2015 17:56 18,4 C 18,3 C 50 % 0 lf 1026,7 hPa 0,0 l/m 2 min 0 min 637 W/m 27,2 km/h (4 Bft)
08.06.2015 17:58 18,4 C 18,3 C 50 % 0 lf 1026,7 hPa 0,0 l/m 2 min 0 min 580 W/m 25,1 km/h (4 Bft)
08.06.2015 18:00 18,5 C 17,8 C 50 % 0 lf 1026,7 hPa 0,0 l/m 2 min 0 min 513 W/m 33,5 km/h (5 Bft)
08.06.2015 18:02 18,5 C 17,8 C 50 % 0 lf 1026,6 hPa 0,0 l/m 2 min 0 min 524 W/m 29,3 km/h (5 Bft)
08.06.2015 18:06 18,6 C 17,8 C 49 % 0 lf 1026,6 hPa 0,0 l/m 2 min 0 min 570 W/m 35,6 km/h (5 Bft)
08.06.2015 18:08 18,6 C 17,8 C 50 % 0 lf 1026,8 hPa 0,0 l/m 2 min 0 min 573 W/m 41,8 km/h (6 Bft)
08.06.2015 18:10 18,6 C 17,8 C 50 % 0 lf 1026,8 hPa 0,0 l/m 2 min 0 min 408 W/m 37,7 km/h (5 Bft)
08.06.2015 18:12 18,6 C 17,8 C 49 % 0 lf 1026,8 hPa 0,0 l/m 2 min 0 min 268 W/m 39,7 km/h (6 Bft)
08.06.2015 18:14 18,4 C 17,2 C 49 % 0 lf 1026,8 hPa 0,0 l/m 0 min 0 min 225 W/m 29,3 km/h (5 Bft)
08.06.2015 18:16 18,3 C 17,2 C 50 % 0 lf 1026,6 hPa 0,0 l/m 2 min 0 min 348 W/m 31,4 km/h (5 Bft)
08.06.2015 18:18 18,3 C 17,8 C 49 % 0 lf 1026,7 hPa 0,0 l/m 2 min 0 min 380 W/m 31,4 km/h (5 Bft)
08.06.2015 18:20 18,2 C 17,8 C 49 % 0 lf 1026,7 hPa 0,0 l/m 2 min 0 min 334 W/m 27,2 km/h (4 Bft)
08.06.2015 18:22 18,2 C 17,8 C 49 % 0 lf 1026,7 hPa 0,0 l/m 2 min 0 min 315 W/m 29,3 km/h (5 Bft)
08.06.2015 18:24 18,2 C 17,8 C 49 % 0 lf 1026,7 hPa 0,0 l/m 2 min 0 min 319 W/m 29,3 km/h (5 Bft)
08.06.2015 18:26 18,1 C 17,2 C 49 % 0 lf 1026,6 hPa 0,0 l/m 2 min 0 min 313 W/m 29,3 km/h (5 Bft)
08.06.2015 18:28 18,1 C 17,8 C 49 % 0 lf 1026,6 hPa 0,0 l/m 2 min 0 min 334 W/m 20,9 km/h (4 Bft)
08.06.2015 18:30 18,1 C 17,8 C 50 % 0 lf 1026,5 hPa 0,0 l/m 2 min 0 min 321 W/m 23,0 km/h (4 Bft)
08.06.2015 18:32 18,1 C 17,8 C 50 % 0 lf 1026,5 hPa 0,0 l/m 2 min 0 min 306 W/m 23,0 km/h (4 Bft)
08.06.2015 18:34 18,1 C 17,8 C 50 % 0 lf 1026,4 hPa 0,0 l/m 2 min 0 min 278 W/m 27,2 km/h (4 Bft)
08.06.2015 18:36 18,0 C 17,2 C 50 % 0 lf 1026,7 hPa 0,0 l/m 2 min 0 min 257 W/m 33,5 km/h (5 Bft)
08.06.2015 18:38 18,0 C 17,2 C 51 % 0 lf 1026,7 hPa 0,0 l/m 2 min 0 min 243 W/m 31,4 km/h (5 Bft)
08.06.2015 18:40 18,0 C 17,2 C 51 % 0 lf 1026,6 hPa 0,0 l/m 2 min 0 min 239 W/m 27,2 km/h (4 Bft)
08.06.2015 18:42 18,0 C 17,2 C 51 % 0 lf 1026,6 hPa 0,0 l/m 2 min 0 min 221 W/m 46,0 km/h (6 Bft)
08.06.2015 18:44 18,0 C 17,2 C 51 % 0 lf 1026,7 hPa 0,0 l/m 0 min 0 min 204 W/m 31,4 km/h (5 Bft)
08.06.2015 18:46 18,0 C 17,2 C 50 % 0 lf 1026,6 hPa 0,0 l/m 2 min 0 min 225 W/m 31,4 km/h (5 Bft)
08.06.2015 18:48 17,9 C 17,2 C 50 % 0 lf 1026,6 hPa 0,0 l/m 2 min 0 min 324 W/m 29,3 km/h (5 Bft)
08.06.2015 18:50 17,9 C 17,2 C 51 % 0 lf 1026,5 hPa 0,0 l/m 2 min 0 min 374 W/m 25,1 km/h (4 Bft)
08.06.2015 18:52 17,9 C 17,2 C 51 % 0 lf 1026,5 hPa 0,0 l/m 2 min 0 min 423 W/m 20,9 km/h (4 Bft)
08.06.2015 18:54 17,9 C 17,8 C 51 % 0 lf 1026,5 hPa 0,0 l/m 2 min 0 min 438 W/m 31,4 km/h (5 Bft)
08.06.2015 18:56 17,9 C 17,8 C 51 % 0 lf 1026,6 hPa 0,0 l/m 2 min 0 min 432 W/m 23,0 km/h (4 Bft)
08.06.2015 18:58 18,0 C 17,8 C 51 % 0 lf 1026,5 hPa 0,0 l/m 2 min 0 min 422 W/m 29,3 km/h (5 Bft)
08.06.2015 19:00 18,1 C 17,2 C 50 % 0 lf 1026,5 hPa 0,0 l/m 2 min 0 min 211 W/m 27,2 km/h (4 Bft)
08.06.2015 19:02 18,1 C 17,2 C 50 % 0 lf 1026,6 hPa 0,0 l/m 0 min 0 min 134 W/m 29,3 km/h (5 Bft)
08.06.2015 19:04 18,1 C 17,2 C 50 % 0 lf 1026,6 hPa 0,0 l/m 0 min 0 min 122 W/m 20,9 km/h (4 Bft)
08.06.2015 19:06 18,1 C 16,7 C 49 % 0 lf 1026,5 hPa 0,0 l/m 0 min 0 min 122 W/m 31,4 km/h (5 Bft)
08.06.2015 19:08 17,9 C 16,7 C 50 % 0 lf 1026,5 hPa 0,0 l/m 0 min 0 min 136 W/m 29,3 km/h (5 Bft)
08.06.2015 19:10 17,9 C 16,7 C 50 % 0 lf 1026,6 hPa 0,0 l/m 2 min 0 min 208 W/m 27,2 km/h (4 Bft)
08.06.2015 19:12 17,8 C 16,7 C 51 % 0 lf 1026,6 hPa 0,0 l/m 2 min 0 min 366 W/m 31,4 km/h (5 Bft)
08.06.2015 19:14 17,8 C 17,2 C 51 % 0 lf 1026,5 hPa 0,0 l/m 2 min 0 min 302 W/m 16,7 km/h (3 Bft)
08.06.2015 19:16 17,8 C 17,2 C 51 % 0 lf 1026,5 hPa 0,0 l/m 2 min 0 min 337 W/m 18,8 km/h (3 Bft)
08.06.2015 19:18 17,8 C 17,2 C 51 % 0 lf 1026,6 hPa 0,0 l/m 2 min 0 min 253 W/m 25,1 km/h (4 Bft)
08.06.2015 19:20 17,8 C 16,7 C 51 % 0 lf 1026,5 hPa 0,0 l/m 2 min 0 min 192 W/m 37,7 km/h (5 Bft)
08.06.2015 19:22 17,7 C 16,7 C 50 % 0 lf 1026,5 hPa 0,0 l/m 2 min 0 min 258 W/m 37,7 km/h (5 Bft)
08.06.2015 19:24 17,7 C 16,7 C 50 % 0 lf 1026,7 hPa 0,0 l/m 2 min 0 min 226 W/m 35,6 km/h (5 Bft)
08.06.2015 19:26 17,7 C 16,7 C 50 % 0 lf 1026,5 hPa 0,0 l/m 2 min 0 min 303 W/m 27,2 km/h (4 Bft)
08.06.2015 19:28 17,7 C 16,7 C 50 % 0 lf 1026,5 hPa 0,0 l/m 2 min 0 min 292 W/m 25,1 km/h (4 Bft)
08.06.2015 19:30 17,7 C 16,7 C 51 % 0 lf 1026,6 hPa 0,0 l/m 2 min 0 min 270 W/m 33,5 km/h (5 Bft)
08.06.2015 19:32 17,7 C 16,7 C 51 % 0 lf 1026,5 hPa 0,0 l/m 2 min 0 min 253 W/m 29,3 km/h (5 Bft)
08.06.2015 19:34 17,7 C 16,7 C 51 % 0 lf 1026,6 hPa 0,0 l/m 2 min 0 min 240 W/m 31,4 km/h (5 Bft)
08.06.2015 19:36 17,6 C 16,7 C 52 % 0 lf 1026,5 hPa 0,0 l/m 2 min 0 min 248 W/m 25,1 km/h (4 Bft)
08.06.2015 19:38 17,6 C 16,7 C 52 % 0 lf 1026,5 hPa 0,0 l/m 2 min 0 min 163 W/m 25,1 km/h (4 Bft)
08.06.2015 19:40 17,6 C 16,7 C 52 % 0 lf 1026,5 hPa 0,0 l/m 2 min 0 min 143 W/m 29,3 km/h (5 Bft)
08.06.2015 19:42 17,6 C 16,7 C 53 % 0 lf 1026,6 hPa 0,0 l/m 2 min 0 min 142 W/m 27,2 km/h (4 Bft)
08.06.2015 19:44 17,6 C 15,0 C 53 % 0 lf 1026,7 hPa 0,0 l/m 2 min 0 min 155 W/m 25,1 km/h (4 Bft)
08.06.2015 19:46 17,5 C 14,4 C 54 % 0 lf 1026,6 hPa 0,0 l/m 2 min 0 min 136 W/m 23,0 km/h (4 Bft)
08.06.2015 19:48 17,4 C 14,4 C 54 % 0 lf 1026,6 hPa 0,0 l/m 0 min 0 min 125 W/m 25,1 km/h (4 Bft)
08.06.2015 19:50 17,4 C 13,9 C 54 % 0 lf 1026,7 hPa 0,0 l/m 0 min 0 min 100 W/m 35,6 km/h (5 Bft)
08.06.2015 19:52 17,3 C 13,9 C 53 % 0 lf 1026,6 hPa 0,0 l/m 0 min 0 min 88 W/m 37,7 km/h (5 Bft)
08.06.2015 19:54 17,3 C 15,0 C 54 % 0 lf 1026,6 hPa 0,0 l/m 0 min 0 min 69 W/m 27,2 km/h (4 Bft)
08.06.2015 19:56 17,2 C 14,4 C 54 % 0 lf 1026,7 hPa 0,0 l/m 0 min 0 min 65 W/m 25,1 km/h (4 Bft)
08.06.2015 19:58 17,2 C 15,0 C 54 % 0 lf 1026,7 hPa 0,0 l/m 0 min 0 min 75 W/m 18,8 km/h (3 Bft)
08.06.2015 20:00 17,1 C 15,0 C 54 % 0 lf 1026,7 hPa 0,0 l/m 0 min 0 min 85 W/m 31,4 km/h (5 Bft)
08.06.2015 20:02 17,1 C 15,6 C 53 % 0 lf 1026,7 hPa 0,0 l/m 0 min 0 min 96 W/m 25,1 km/h (4 Bft)
08.06.2015 20:04 17,1 C 15,6 C 54 % 0 lf 1026,7 hPa 0,0 l/m 0 min 0 min 93 W/m 31,4 km/h (5 Bft)
08.06.2015 20:06 17,0 C 15,6 C 54 % 0 lf 1026,7 hPa 0,0 l/m 2 min 0 min 121 W/m 31,4 km/h (5 Bft)
08.06.2015 20:08 17,0 C 16,1 C 53 % 0 lf 1026,7 hPa 0,0 l/m 2 min 0 min 198 W/m 31,4 km/h (5 Bft)
08.06.2015 20:10 16,9 C 16,1 C 53 % 0 lf 1026,7 hPa 0,0 l/m 2 min 0 min 190 W/m 27,2 km/h (4 Bft)
08.06.2015 20:12 17,0 C 16,1 C 53 % 0 lf 1026,7 hPa 0,0 l/m 2 min 0 min 178 W/m 29,3 km/h (5 Bft)
08.06.2015 20:14 17,0 C 16,1 C 53 % 0 lf 1026,8 hPa 0,0 l/m 2 min 0 min 171 W/m 35,6 km/h (5 Bft)
08.06.2015 20:16 16,9 C 16,1 C 53 % 0 lf 1026,7 hPa 0,0 l/m 2 min 0 min 168 W/m 27,2 km/h (4 Bft)
08.06.2015 20:18 16,9 C 16,1 C 53 % 0 lf 1026,7 hPa 0,0 l/m 2 min 0 min 162 W/m 31,4 km/h (5 Bft)
08.06.2015 20:20 16,9 C 15,6 C 53 % 0 lf 1026,8 hPa 0,0 l/m 2 min 0 min 159 W/m 31,4 km/h (5 Bft)
08.06.2015 20:22 16,9 C 16,1 C 53 % 0 lf 1026,8 hPa 0,0 l/m 2 min 0 min 149 W/m 31,4 km/h (5 Bft)
08.06.2015 20:24 16,9 C 15,6 C 53 % 0 lf 1026,8 hPa 0,0 l/m 2 min 0 min 147 W/m 31,4 km/h (5 Bft)
08.06.2015 20:26 16,9 C 15,6 C 54 % 0 lf 1026,8 hPa 0,0 l/m 2 min 0 min 128 W/m 31,4 km/h (5 Bft)
08.06.2015 20:28 16,9 C 15,6 C 55 % 0 lf 1026,8 hPa 0,0 l/m 2 min 0 min 136 W/m 23,0 km/h (4 Bft)
08.06.2015 20:30 16,9 C 15,6 C 55 % 0 lf 1026,8 hPa 0,0 l/m 2 min 0 min 137 W/m 23,0 km/h (4 Bft)
08.06.2015 20:32 16,9 C 15,6 C 55 % 0 lf 1026,8 hPa 0,0 l/m 2 min 0 min 136 W/m 25,1 km/h (4 Bft)
08.06.2015 20:34 16,9 C 15,6 C 56 % 0 lf 1026,8 hPa 0,0 l/m 2 min 0 min 129 W/m 18,8 km/h (3 Bft)
08.06.2015 20:36 16,8 C 15,6 C 56 % 0 lf 1026,8 hPa 0,0 l/m 2 min 0 min 121 W/m 25,1 km/h (4 Bft)
08.06.2015 20:38 16,8 C 15,6 C 56 % 0 lf 1026,9 hPa 0,0 l/m 2 min 0 min 115 W/m 29,3 km/h (5 Bft)
08.06.2015 20:40 16,8 C 15,6 C 56 % 0 lf 1026,8 hPa 0,0 l/m 2 min 0 min 110 W/m 35,6 km/h (5 Bft)
08.06.2015 20:42 16,8 C 15,6 C 56 % 0 lf 1026,7 hPa 0,0 l/m 2 min 0 min 86 W/m 27,2 km/h (4 Bft)
08.06.2015 20:44 16,8 C 15,6 C 56 % 0 lf 1026,8 hPa 0,0 l/m 2 min 0 min 83 W/m 27,2 km/h (4 Bft)
08.06.2015 20:46 16,7 C 15,6 C 57 % 0 lf 1026,8 hPa 0,0 l/m 2 min 0 min 78 W/m 18,8 km/h (3 Bft)
08.06.2015 20:48 16,7 C 15,0 C 57 % 0 lf 1026,9 hPa 0,0 l/m 2 min 0 min 76 W/m 27,2 km/h (4 Bft)
08.06.2015 20:50 16,6 C 15,0 C 57 % 0 lf 1026,8 hPa 0,0 l/m 2 min 0 min 67 W/m 33,5 km/h (5 Bft)
08.06.2015 20:52 16,6 C 15,0 C 57 % 0 lf 1026,9 hPa 0,0 l/m 2 min 0 min 65 W/m 25,1 km/h (4 Bft)
08.06.2015 20:54 16,4 C 15,0 C 57 % 0 lf 1026,9 hPa 0,0 l/m 2 min 0 min 61 W/m 29,3 km/h (5 Bft)
08.06.2015 20:56 16,4 C 15,0 C 57 % 0 lf 1026,8 hPa 0,0 l/m 2 min 0 min 51 W/m 25,1 km/h (4 Bft)
08.06.2015 20:58 16,3 C 15,0 C 58 % 0 lf 1026,8 hPa 0,0 l/m 2 min 0 min 46 W/m 20,9 km/h (4 Bft)
08.06.2015 21:00 16,3 C 14,4 C 58 % 0 lf 1026,8 hPa 0,0 l/m 0 min 0 min 42 W/m 31,4 km/h (5 Bft)
08.06.2015 21:02 16,2 C 14,4 C 58 % 0 lf 1026,8 hPa 0,0 l/m 0 min 0 min 36 W/m 27,2 km/h (4 Bft)
08.06.2015 21:04 16,2 C 14,4 C 58 % 0 lf 1026,7 hPa 0,0 l/m 0 min 0 min 35 W/m 25,1 km/h (4 Bft)
08.06.2015 21:06 16,1 C 14,4 C 58 % 0 lf 1026,9 hPa 0,0 l/m 0 min 0 min 33 W/m 27,2 km/h (4 Bft)
08.06.2015 21:08 16,1 C 14,4 C 59 % 0 lf 1026,8 hPa 0,0 l/m 0 min 0 min 32 W/m 18,8 km/h (3 Bft)
08.06.2015 21:10 16,0 C 14,4 C 59 % 0 lf 1026,8 hPa 0,0 l/m 0 min 0 min 31 W/m 23,0 km/h (4 Bft)
08.06.2015 21:12 15,9 C 14,4 C 59 % 0 lf 1026,8 hPa 0,0 l/m 2 min 0 min 30 W/m 25,1 km/h (4 Bft)
08.06.2015 21:14 15,9 C 14,4 C 59 % 0 lf 1026,8 hPa 0,0 l/m 2 min 0 min 29 W/m 29,3 km/h (5 Bft)
08.06.2015 21:16 15,8 C 14,4 C 59 % 0 lf 1027,0 hPa 0,0 l/m 2 min 0 min 26 W/m 20,9 km/h (4 Bft)
08.06.2015 21:18 15,8 C 14,4 C 59 % 0 lf 1026,9 hPa 0,0 l/m 2 min 0 min 24 W/m 20,9 km/h (4 Bft)
08.06.2015 21:20 15,8 C 14,4 C 60 % 0 lf 1027,0 hPa 0,0 l/m 0 min 0 min 21 W/m 16,7 km/h (3 Bft)
08.06.2015 21:22 15,7 C 14,4 C 60 % 0 lf 1027,1 hPa 0,0 l/m 0 min 0 min 19 W/m 27,2 km/h (4 Bft)
08.06.2015 21:24 15,7 C 13,9 C 60 % 0 lf 1027,0 hPa 0,0 l/m 0 min 0 min 15 W/m 29,3 km/h (5 Bft)
08.06.2015 21:26 15,6 C 13,9 C 59 % 0 lf 1027,1 hPa 0,0 l/m 0 min 0 min 13 W/m 31,4 km/h (5 Bft)
08.06.2015 21:28 15,6 C 13,9 C 59 % 0 lf 1027,1 hPa 0,0 l/m 0 min 0 min 12 W/m 29,3 km/h (5 Bft)
08.06.2015 21:30 15,5 C 13,9 C 59 % 0 lf 1027,2 hPa 0,0 l/m 0 min 0 min 11 W/m 41,8 km/h (6 Bft)
08.06.2015 21:32 15,5 C 13,9 C 59 % 0 lf 1027,2 hPa 0,0 l/m 0 min 0 min 11 W/m 25,1 km/h (4 Bft)
08.06.2015 21:34 15,4 C 13,9 C 59 % 0 lf 1027,1 hPa 0,0 l/m 0 min 0 min 11 W/m 27,2 km/h (4 Bft)
08.06.2015 21:36 15,4 C 13,9 C 59 % 0 lf 1027,1 hPa 0,0 l/m 0 min 0 min 11 W/m 23,0 km/h (4 Bft)
08.06.2015 21:38 15,4 C 13,9 C 60 % 0 lf 1027,1 hPa 0,0 l/m 0 min 0 min 11 W/m 23,0 km/h (4 Bft)
08.06.2015 21:40 15,3 C 13,9 C 60 % 0 lf 1027,1 hPa 0,0 l/m 0 min 0 min 9 W/m 18,8 km/h (3 Bft)
08.06.2015 21:42 15,2 C 13,9 C 60 % 0 lf 1027,1 hPa 0,0 l/m 0 min 0 min 9 W/m 37,7 km/h (5 Bft)
08.06.2015 21:44 15,2 C 13,9 C 60 % 0 lf 1027,2 hPa 0,0 l/m 0 min 0 min 9 W/m 37,7 km/h (5 Bft)
08.06.2015 21:46 15,2 C 13,9 C 60 % 0 lf 1027,3 hPa 0,0 l/m 0 min 0 min 7 W/m 29,3 km/h (5 Bft)
08.06.2015 21:48 15,1 C 13,9 C 60 % 0 lf 1027,3 hPa 0,0 l/m 0 min 0 min 7 W/m 33,5 km/h (5 Bft)
08.06.2015 21:50 15,1 C 13,3 C 60 % 0 lf 1027,3 hPa 0,0 l/m 0 min 0 min 6 W/m 29,3 km/h (5 Bft)
08.06.2015 21:52 15,0 C 13,3 C 60 % 0 lf 1027,3 hPa 0,0 l/m 0 min 0 min 5 W/m 27,2 km/h (4 Bft)
08.06.2015 21:54 14,9 C 13,3 C 60 % 0 lf 1027,4 hPa 0,0 l/m 0 min 0 min 5 W/m 23,0 km/h (4 Bft)
08.06.2015 21:56 14,9 C 13,3 C 60 % 0 lf 1027,6 hPa 0,0 l/m 0 min 0 min 5 W/m 33,5 km/h (5 Bft)
08.06.2015 21:58 14,8 C 13,3 C 61 % 0 lf 1027,4 hPa 0,0 l/m 0 min 0 min 0 W/m 27,2 km/h (4 Bft)
08.06.2015 22:00 14,8 C 13,3 C 61 % 0 lf 1027,5 hPa 0,0 l/m 0 min 0 min 0 W/m 31,4 km/h (5 Bft)
08.06.2015 22:02 14,7 C 13,3 C 61 % 0 lf 1027,6 hPa 0,0 l/m 0 min 0 min 0 W/m 35,6 km/h (5 Bft)
08.06.2015 22:04 14,7 C 13,3 C 61 % 0 lf 1027,7 hPa 0,0 l/m 0 min 0 min 0 W/m 35,6 km/h (5 Bft)
08.06.2015 22:06 14,7 C 13,3 C 61 % 0 lf 1027,7 hPa 0,0 l/m 0 min 0 min 0 W/m 25,1 km/h (4 Bft)
08.06.2015 22:08 14,6 C 12,8 C 62 % 0 lf 1027,7 hPa 0,0 l/m 0 min 0 min 0 W/m 27,2 km/h (4 Bft)
08.06.2015 22:10 14,6 C 12,8 C 62 % 0 lf 1027,7 hPa 0,0 l/m 0 min 0 min 0 W/m 35,6 km/h (5 Bft)
08.06.2015 22:12 14,5 C 12,8 C 62 % 0 lf 1027,7 hPa 0,0 l/m 0 min 0 min 0 W/m 33,5 km/h (5 Bft)
08.06.2015 22:14 14,4 C 12,8 C 62 % 0 lf 1027,7 hPa 0,0 l/m 0 min 0 min 0 W/m 29,3 km/h (5 Bft)
08.06.2015 22:16 14,4 C 12,8 C 62 % 0 lf 1027,7 hPa 0,0 l/m 0 min 0 min 0 W/m 27,2 km/h (4 Bft)
08.06.2015 22:18 14,3 C 12,8 C 62 % 0 lf 1027,7 hPa 0,0 l/m 0 min 0 min 0 W/m 16,7 km/h (3 Bft)
08.06.2015 22:20 14,2 C 12,8 C 62 % 0 lf 1027,8 hPa 0,0 l/m 0 min 0 min 0 W/m 23,0 km/h (4 Bft)
08.06.2015 22:22 14,2 C 12,8 C 63 % 0 lf 1027,8 hPa 0,0 l/m 0 min 0 min 0 W/m 20,9 km/h (4 Bft)
08.06.2015 22:24 14,2 C 12,8 C 63 % 0 lf 1027,7 hPa 0,0 l/m 0 min 0 min 0 W/m 33,5 km/h (5 Bft)
08.06.2015 22:26 14,2 C 12,2 C 63 % 0 lf 1027,7 hPa 0,0 l/m 0 min 0 min 0 W/m 23,0 km/h (4 Bft)
08.06.2015 22:28 14,1 C 12,2 C 63 % 0 lf 1027,8 hPa 0,0 l/m 0 min 0 min 0 W/m 27,2 km/h (4 Bft)
08.06.2015 22:30 14,0 C 12,2 C 63 % 0 lf 1027,8 hPa 0,0 l/m 0 min 0 min 0 W/m 27,2 km/h (4 Bft)
08.06.2015 22:32 13,9 C 12,2 C 63 % 0 lf 1027,9 hPa 0,0 l/m 0 min 0 min 0 W/m 27,2 km/h (4 Bft)
08.06.2015 22:34 13,9 C 12,2 C 63 % 0 lf 1027,8 hPa 0,0 l/m 0 min 0 min 0 W/m 20,9 km/h (4 Bft)
08.06.2015 22:36 13,8 C 12,2 C 64 % 0 lf 1027,9 hPa 0,0 l/m 0 min 0 min 0 W/m 18,8 km/h (3 Bft)
08.06.2015 22:38 13,8 C 12,2 C 64 % 0 lf 1027,9 hPa 0,0 l/m 0 min 0 min 0 W/m 23,0 km/h (4 Bft)
08.06.2015 22:40 13,7 C 12,2 C 64 % 0 lf 1027,9 hPa 0,0 l/m 0 min 0 min 0 W/m 23,0 km/h (4 Bft)
08.06.2015 22:42 13,7 C 12,2 C 64 % 0 lf 1027,9 hPa 0,0 l/m 0 min 0 min 0 W/m 20,9 km/h (4 Bft)
08.06.2015 22:44 13,6 C 12,2 C 64 % 0 lf 1027,9 hPa 0,0 l/m 0 min 0 min 0 W/m 27,2 km/h (4 Bft)
08.06.2015 22:46 13,6 C 12,2 C 64 % 0 lf 1028,0 hPa 0,0 l/m 0 min 0 min 0 W/m 25,1 km/h (4 Bft)
08.06.2015 22:48 13,5 C 12,2 C 64 % 0 lf 1027,9 hPa 0,0 l/m 0 min 0 min 0 W/m 20,9 km/h (4 Bft)
08.06.2015 22:50 13,4 C 12,2 C 64 % 0 lf 1028,0 hPa 0,0 l/m 0 min 0 min 0 W/m 20,9 km/h (4 Bft)
08.06.2015 22:52 13,4 C 11,7 C 65 % 0 lf 1028,0 hPa 0,0 l/m 0 min 0 min 0 W/m 29,3 km/h (5 Bft)
08.06.2015 22:54 13,3 C 11,7 C 65 % 0 lf 1028,0 hPa 0,0 l/m 0 min 0 min 0 W/m 31,4 km/h (5 Bft)
08.06.2015 22:56 13,3 C 11,7 C 65 % 0 lf 1028,0 hPa 0,0 l/m 0 min 0 min 0 W/m 25,1 km/h (4 Bft)
08.06.2015 22:58 13,2 C 11,7 C 65 % 0 lf 1028,0 hPa 0,0 l/m 0 min 0 min 0 W/m 25,1 km/h (4 Bft)
08.06.2015 23:00 13,2 C 11,7 C 65 % 0 lf 1028,1 hPa 0,0 l/m 0 min 0 min 0 W/m 27,2 km/h (4 Bft)
08.06.2015 23:02 13,1 C 11,7 C 65 % 0 lf 1028,1 hPa 0,0 l/m 0 min 0 min 0 W/m 27,2 km/h (4 Bft)
08.06.2015 23:04 13,1 C 11,7 C 65 % 0 lf 1028,2 hPa 0,0 l/m 0 min 0 min 0 W/m 27,2 km/h (4 Bft)
08.06.2015 23:06 13,0 C 11,7 C 66 % 0 lf 1028,1 hPa 0,0 l/m 0 min 0 min 0 W/m 29,3 km/h (5 Bft)
08.06.2015 23:08 13,0 C 11,7 C 66 % 0 lf 1028,2 hPa 0,0 l/m 0 min 0 min 0 W/m 23,0 km/h (4 Bft)
08.06.2015 23:10 12,9 C 11,7 C 66 % 0 lf 1028,3 hPa 0,0 l/m 0 min 0 min 0 W/m 27,2 km/h (4 Bft)
08.06.2015 23:12 12,9 C 11,7 C 66 % 0 lf 1028,2 hPa 0,0 l/m 0 min 0 min 0 W/m 29,3 km/h (5 Bft)
08.06.2015 23:14 12,9 C 11,7 C 66 % 0 lf 1028,3 hPa 0,0 l/m 0 min 0 min 0 W/m 29,3 km/h (5 Bft)
08.06.2015 23:16 12,8 C 11,7 C 67 % 0 lf 1028,2 hPa 0,0 l/m 0 min 0 min 0 W/m 29,3 km/h (5 Bft)
08.06.2015 23:18 12,8 C 11,7 C 67 % 0 lf 1028,4 hPa 0,0 l/m 0 min 0 min 0 W/m 27,2 km/h (4 Bft)
08.06.2015 23:20 12,7 C 11,7 C 67 % 0 lf 1028,2 hPa 0,0 l/m 0 min 0 min 0 W/m 23,0 km/h (4 Bft)
08.06.2015 23:22 12,7 C 11,7 C 68 % 0 lf 1028,3 hPa 0,0 l/m 0 min 0 min 0 W/m 29,3 km/h (5 Bft)
08.06.2015 23:24 12,7 C 11,7 C 68 % 0 lf 1028,3 hPa 0,0 l/m 0 min 0 min 0 W/m 27,2 km/h (4 Bft)
08.06.2015 23:26 12,6 C 11,7 C 68 % 0 lf 1028,3 hPa 0,0 l/m 0 min 0 min 0 W/m 25,1 km/h (4 Bft)
08.06.2015 23:28 12,6 C 11,1 C 68 % 0 lf 1028,3 hPa 0,0 l/m 0 min 0 min 0 W/m 25,1 km/h (4 Bft)
08.06.2015 23:30 12,6 C 11,1 C 68 % 0 lf 1028,4 hPa 0,0 l/m 0 min 0 min 0 W/m 25,1 km/h (4 Bft)
08.06.2015 23:32 12,5 C 11,1 C 68 % 0 lf 1028,4 hPa 0,0 l/m 0 min 0 min 0 W/m 27,2 km/h (4 Bft)
08.06.2015 23:34 12,5 C 11,1 C 68 % 0 lf 1028,4 hPa 0,0 l/m 0 min 0 min 0 W/m 27,2 km/h (4 Bft)
08.06.2015 23:36 12,4 C 11,1 C 69 % 0 lf 1028,4 hPa 0,0 l/m 0 min 0 min 0 W/m 27,2 km/h (4 Bft)
08.06.2015 23:38 12,4 C 11,1 C 69 % 0 lf 1028,5 hPa 0,0 l/m 0 min 0 min 0 W/m 25,1 km/h (4 Bft)
08.06.2015 23:40 12,4 C 11,1 C 69 % 0 lf 1028,5 hPa 0,0 l/m 0 min 0 min 0 W/m 29,3 km/h (5 Bft)
08.06.2015 23:42 12,3 C 11,1 C 69 % 0 lf 1028,5 hPa 0,0 l/m 0 min 0 min 0 W/m 27,2 km/h (4 Bft)
08.06.2015 23:44 12,3 C 11,1 C 69 % 0 lf 1028,5 hPa 0,0 l/m 0 min 0 min 0 W/m 31,4 km/h (5 Bft)
08.06.2015 23:46 12,3 C 11,1 C 69 % 0 lf 1028,5 hPa 0,0 l/m 0 min 0 min 0 W/m 20,9 km/h (4 Bft)
08.06.2015 23:48 12,2 C 11,1 C 69 % 0 lf 1028,5 hPa 0,0 l/m 0 min 0 min 0 W/m 23,0 km/h (4 Bft)
08.06.2015 23:50 12,2 C 11,1 C 70 % 0 lf 1028,5 hPa 0,0 l/m 0 min 0 min 0 W/m 27,2 km/h (4 Bft)
08.06.2015 23:52 12,2 C 11,1 C 70 % 0 lf 1028,5 hPa 0,0 l/m 0 min 0 min 0 W/m 18,8 km/h (3 Bft)
08.06.2015 23:54 12,1 C 10,6 C 70 % 0 lf 1028,5 hPa 0,0 l/m 0 min 0 min 0 W/m 23,0 km/h (4 Bft)
08.06.2015 23:56 12,1 C 10,6 C 70 % 0 lf 1028,5 hPa 0,0 l/m 0 min 0 min 0 W/m 23,0 km/h (4 Bft)
08.06.2015 23:58 12,0 C 10,6 C 70 % 0 lf 1028,5 hPa 0,0 l/m 0 min 0 min 0 W/m 27,2 km/h (4 Bft)
_ Min-Zeit 05:50 04:46 16:52 00:00 18:34 - - - - 03:46
Minimum _ 8,7 C 7,8 C 47 % 0 lf 1026,4 hPa - - - - 6,3 km/h (2 Bft)
_ Max-Zeit 15:28 16:26 06:32 00:00 01:36 00:00 05:44 00:00 14:50 18:42
Maximum _ 19,5 C 25,0 C 88 % 0 lf 1029,8 hPa 0,0 l/m 2 min 0 min 1104 W/m 46,0 km/h
O-NO (6 Bft)
Durchschnitt _ 14,3 C 13,8 C 66 % 0 lf 1028,5 hPa #0,0 l/m #13:23 h #0 min. 467 W/m 23,3 km/h (4 Bft)
© 2015 W. Hausmann